<?xml version="1.0" encoding="UTF-8" standalone="no" ?>
<gpx xmlns="http://www.topografix.com/GPX/1/1" xmlns:xsi="http://www.w3.org/2001/XMLSchema-instance" xsi:schemaLocation="http://www.topografix.com/GPX/1/1 http://www.topografix.com/GPX/1/1/gpx.xsd" version="1.1" creator="VisuGPX - https://www.visugpx.com">
  <metadata>
    <name>Autour de revin </name>
  </metadata>
  <trk>
    <name><![CDATA[Tour de Revin de Rocroi-18687498]]></name>
    <extensions>
      <line xmlns="http://www.topografix.com/GPX/gpx_style/0/2">
        <color>0000FF</color>
        <width>4</width>
      </line>
    </extensions>
    <trkseg>
      <trkpt lat="49.92058" lon="4.52012">
        <ele>386</ele>
        <time>2024-04-06T06:27:09Z</time>
      </trkpt>
      <trkpt lat="49.92062" lon="4.52003">
        <ele>386</ele>
        <time>2024-04-06T06:27:10Z</time>
      </trkpt>
      <trkpt lat="49.92076" lon="4.51985">
        <ele>386.4</ele>
        <time>2024-04-06T06:27:13Z</time>
      </trkpt>
      <trkpt lat="49.9208" lon="4.51985">
        <ele>386.5</ele>
        <time>2024-04-06T06:27:14Z</time>
      </trkpt>
      <trkpt lat="49.92086" lon="4.51978">
        <ele>386.7</ele>
        <time>2024-04-06T06:27:16Z</time>
      </trkpt>
      <trkpt lat="49.92083" lon="4.51971">
        <ele>387</ele>
        <time>2024-04-06T06:27:16Z</time>
      </trkpt>
      <trkpt lat="49.92066" lon="4.5199">
        <ele>386.1</ele>
        <time>2024-04-06T06:27:20Z</time>
      </trkpt>
      <trkpt lat="49.92041" lon="4.52008">
        <ele>386</ele>
        <time>2024-04-06T06:27:25Z</time>
      </trkpt>
      <trkpt lat="49.92039" lon="4.5201">
        <ele>386</ele>
        <time>2024-04-06T06:27:26Z</time>
      </trkpt>
      <trkpt lat="49.92036" lon="4.52017">
        <ele>386</ele>
        <time>2024-04-06T06:27:27Z</time>
      </trkpt>
      <trkpt lat="49.92036" lon="4.52026">
        <ele>386</ele>
        <time>2024-04-06T06:27:28Z</time>
      </trkpt>
      <trkpt lat="49.92044" lon="4.52042">
        <ele>386</ele>
        <time>2024-04-06T06:27:30Z</time>
      </trkpt>
      <trkpt lat="49.92061" lon="4.52063">
        <ele>386</ele>
        <time>2024-04-06T06:27:34Z</time>
      </trkpt>
      <trkpt lat="49.92101" lon="4.52174">
        <ele>383.9</ele>
        <time>2024-04-06T06:27:48Z</time>
      </trkpt>
      <trkpt lat="49.9211" lon="4.52191">
        <ele>384</ele>
        <time>2024-04-06T06:27:51Z</time>
      </trkpt>
      <trkpt lat="49.92118" lon="4.52203">
        <ele>383.7</ele>
        <time>2024-04-06T06:27:53Z</time>
      </trkpt>
      <trkpt lat="49.92209" lon="4.52294">
        <ele>383.7</ele>
        <time>2024-04-06T06:28:12Z</time>
      </trkpt>
      <trkpt lat="49.92232" lon="4.52322">
        <ele>383.4</ele>
        <time>2024-04-06T06:28:17Z</time>
      </trkpt>
      <trkpt lat="49.92304" lon="4.52414">
        <ele>380.1</ele>
        <time>2024-04-06T06:28:34Z</time>
      </trkpt>
      <trkpt lat="49.92312" lon="4.52427">
        <ele>379.7</ele>
        <time>2024-04-06T06:28:36Z</time>
      </trkpt>
      <trkpt lat="49.92324" lon="4.52458">
        <ele>379.2</ele>
        <time>2024-04-06T06:28:40Z</time>
      </trkpt>
      <trkpt lat="49.92349" lon="4.52576">
        <ele>377.4</ele>
        <time>2024-04-06T06:28:54Z</time>
      </trkpt>
      <trkpt lat="49.92355" lon="4.5259">
        <ele>377.4</ele>
        <time>2024-04-06T06:28:56Z</time>
      </trkpt>
      <trkpt lat="49.92362" lon="4.52601">
        <ele>377.4</ele>
        <time>2024-04-06T06:28:58Z</time>
      </trkpt>
      <trkpt lat="49.92373" lon="4.52609">
        <ele>377.1</ele>
        <time>2024-04-06T06:29:00Z</time>
      </trkpt>
      <trkpt lat="49.92391" lon="4.52607">
        <ele>377</ele>
        <time>2024-04-06T06:29:03Z</time>
      </trkpt>
      <trkpt lat="49.92403" lon="4.526">
        <ele>376.6</ele>
        <time>2024-04-06T06:29:06Z</time>
      </trkpt>
      <trkpt lat="49.9252" lon="4.5249">
        <ele>379.8</ele>
        <time>2024-04-06T06:29:30Z</time>
      </trkpt>
      <trkpt lat="49.92526" lon="4.52489">
        <ele>379.8</ele>
        <time>2024-04-06T06:29:31Z</time>
      </trkpt>
      <trkpt lat="49.9254" lon="4.52493">
        <ele>379.8</ele>
        <time>2024-04-06T06:29:34Z</time>
      </trkpt>
      <trkpt lat="49.92583" lon="4.52548">
        <ele>378.5</ele>
        <time>2024-04-06T06:29:43Z</time>
      </trkpt>
      <trkpt lat="49.92602" lon="4.52569">
        <ele>378</ele>
        <time>2024-04-06T06:29:48Z</time>
      </trkpt>
      <trkpt lat="49.9261" lon="4.52574">
        <ele>378.3</ele>
        <time>2024-04-06T06:29:49Z</time>
      </trkpt>
      <trkpt lat="49.92625" lon="4.52575">
        <ele>378.1</ele>
        <time>2024-04-06T06:29:52Z</time>
      </trkpt>
      <trkpt lat="49.92634" lon="4.52571">
        <ele>378.1</ele>
        <time>2024-04-06T06:29:54Z</time>
      </trkpt>
      <trkpt lat="49.92665" lon="4.52533">
        <ele>377.7</ele>
        <time>2024-04-06T06:30:01Z</time>
      </trkpt>
      <trkpt lat="49.92679" lon="4.52527">
        <ele>377.6</ele>
        <time>2024-04-06T06:30:03Z</time>
      </trkpt>
      <trkpt lat="49.92685" lon="4.52527">
        <ele>377.4</ele>
        <time>2024-04-06T06:30:04Z</time>
      </trkpt>
      <trkpt lat="49.92701" lon="4.52536">
        <ele>377</ele>
        <time>2024-04-06T06:30:07Z</time>
      </trkpt>
      <trkpt lat="49.92737" lon="4.52574">
        <ele>377.2</ele>
        <time>2024-04-06T06:30:15Z</time>
      </trkpt>
      <trkpt lat="49.92869" lon="4.52728">
        <ele>379.3</ele>
        <time>2024-04-06T06:30:44Z</time>
      </trkpt>
      <trkpt lat="49.92914" lon="4.52782">
        <ele>380.8</ele>
        <time>2024-04-06T06:30:54Z</time>
      </trkpt>
      <trkpt lat="49.9299" lon="4.52898">
        <ele>382.4</ele>
        <time>2024-04-06T06:31:13Z</time>
      </trkpt>
      <trkpt lat="49.93047" lon="4.52992">
        <ele>383</ele>
        <time>2024-04-06T06:31:28Z</time>
      </trkpt>
      <trkpt lat="49.93468" lon="4.53667">
        <ele>380.8</ele>
        <time>2024-04-06T06:33:16Z</time>
      </trkpt>
      <trkpt lat="49.93483" lon="4.53693">
        <ele>376.1</ele>
        <time>2024-04-06T06:33:20Z</time>
      </trkpt>
      <trkpt lat="49.93508" lon="4.53733">
        <ele>377.3</ele>
        <time>2024-04-06T06:33:26Z</time>
      </trkpt>
      <trkpt lat="49.9353" lon="4.53774">
        <ele>381</ele>
        <time>2024-04-06T06:33:32Z</time>
      </trkpt>
      <trkpt lat="49.93534" lon="4.53787">
        <ele>381.1</ele>
        <time>2024-04-06T06:33:34Z</time>
      </trkpt>
      <trkpt lat="49.93532" lon="4.53797">
        <ele>381.1</ele>
        <time>2024-04-06T06:33:35Z</time>
      </trkpt>
      <trkpt lat="49.93532" lon="4.53807">
        <ele>381.1</ele>
        <time>2024-04-06T06:33:36Z</time>
      </trkpt>
      <trkpt lat="49.93534" lon="4.53817">
        <ele>380.8</ele>
        <time>2024-04-06T06:33:38Z</time>
      </trkpt>
      <trkpt lat="49.93537" lon="4.53825">
        <ele>380.6</ele>
        <time>2024-04-06T06:33:39Z</time>
      </trkpt>
      <trkpt lat="49.93547" lon="4.53835">
        <ele>380.7</ele>
        <time>2024-04-06T06:33:41Z</time>
      </trkpt>
      <trkpt lat="49.93559" lon="4.53834">
        <ele>380.9</ele>
        <time>2024-04-06T06:33:43Z</time>
      </trkpt>
      <trkpt lat="49.9357" lon="4.53839">
        <ele>380.5</ele>
        <time>2024-04-06T06:33:45Z</time>
      </trkpt>
      <trkpt lat="49.93581" lon="4.53852">
        <ele>380.6</ele>
        <time>2024-04-06T06:33:47Z</time>
      </trkpt>
      <trkpt lat="49.9361" lon="4.53895">
        <ele>381.2</ele>
        <time>2024-04-06T06:33:54Z</time>
      </trkpt>
      <trkpt lat="49.9482" lon="4.55833">
        <ele>379.5</ele>
        <time>2024-04-06T06:39:04Z</time>
      </trkpt>
      <trkpt lat="49.94838" lon="4.55865">
        <ele>379.1</ele>
        <time>2024-04-06T06:39:09Z</time>
      </trkpt>
      <trkpt lat="49.94846" lon="4.55889">
        <ele>379.5</ele>
        <time>2024-04-06T06:39:12Z</time>
      </trkpt>
      <trkpt lat="49.94856" lon="4.5593">
        <ele>379.2</ele>
        <time>2024-04-06T06:39:17Z</time>
      </trkpt>
      <trkpt lat="49.95145" lon="4.57567">
        <ele>379.7</ele>
        <time>2024-04-06T06:42:31Z</time>
      </trkpt>
      <trkpt lat="49.95159" lon="4.57633">
        <ele>380.1</ele>
        <time>2024-04-06T06:42:39Z</time>
      </trkpt>
      <trkpt lat="49.9517" lon="4.57668">
        <ele>379.9</ele>
        <time>2024-04-06T06:42:43Z</time>
      </trkpt>
      <trkpt lat="49.95181" lon="4.57694">
        <ele>380.5</ele>
        <time>2024-04-06T06:42:47Z</time>
      </trkpt>
      <trkpt lat="49.95425" lon="4.58199">
        <ele>375.9</ele>
        <time>2024-04-06T06:43:59Z</time>
      </trkpt>
      <trkpt lat="49.96331" lon="4.60083">
        <ele>388</ele>
        <time>2024-04-06T06:48:29Z</time>
      </trkpt>
      <trkpt lat="49.96346" lon="4.60121">
        <ele>387</ele>
        <time>2024-04-06T06:48:34Z</time>
      </trkpt>
      <trkpt lat="49.9636" lon="4.60174">
        <ele>386</ele>
        <time>2024-04-06T06:48:40Z</time>
      </trkpt>
      <trkpt lat="49.96662" lon="4.61638">
        <ele>371.1</ele>
        <time>2024-04-06T06:51:36Z</time>
      </trkpt>
      <trkpt lat="49.96671" lon="4.61673">
        <ele>370.4</ele>
        <time>2024-04-06T06:51:40Z</time>
      </trkpt>
      <trkpt lat="49.96679" lon="4.61695">
        <ele>369.7</ele>
        <time>2024-04-06T06:51:43Z</time>
      </trkpt>
      <trkpt lat="49.96693" lon="4.6172">
        <ele>369</ele>
        <time>2024-04-06T06:51:47Z</time>
      </trkpt>
      <trkpt lat="49.96707" lon="4.61738">
        <ele>368.7</ele>
        <time>2024-04-06T06:51:50Z</time>
      </trkpt>
      <trkpt lat="49.96847" lon="4.6189">
        <ele>361.5</ele>
        <time>2024-04-06T06:52:21Z</time>
      </trkpt>
      <trkpt lat="49.96876" lon="4.61914">
        <ele>358.9</ele>
        <time>2024-04-06T06:52:27Z</time>
      </trkpt>
      <trkpt lat="49.96941" lon="4.61947">
        <ele>355.4</ele>
        <time>2024-04-06T06:52:39Z</time>
      </trkpt>
      <trkpt lat="49.96971" lon="4.61967">
        <ele>353.6</ele>
        <time>2024-04-06T06:52:45Z</time>
      </trkpt>
      <trkpt lat="49.96998" lon="4.61993">
        <ele>351.6</ele>
        <time>2024-04-06T06:52:50Z</time>
      </trkpt>
      <trkpt lat="49.97118" lon="4.62125">
        <ele>343.8</ele>
        <time>2024-04-06T06:53:16Z</time>
      </trkpt>
      <trkpt lat="49.97136" lon="4.62141">
        <ele>342.6</ele>
        <time>2024-04-06T06:53:20Z</time>
      </trkpt>
      <trkpt lat="49.9718" lon="4.62163">
        <ele>339.6</ele>
        <time>2024-04-06T06:53:28Z</time>
      </trkpt>
      <trkpt lat="49.97373" lon="4.62245">
        <ele>327.7</ele>
        <time>2024-04-06T06:54:04Z</time>
      </trkpt>
      <trkpt lat="49.97401" lon="4.62263">
        <ele>325.9</ele>
        <time>2024-04-06T06:54:09Z</time>
      </trkpt>
      <trkpt lat="49.97417" lon="4.62282">
        <ele>325.1</ele>
        <time>2024-04-06T06:54:13Z</time>
      </trkpt>
      <trkpt lat="49.97438" lon="4.62322">
        <ele>323.7</ele>
        <time>2024-04-06T06:54:19Z</time>
      </trkpt>
      <trkpt lat="49.97474" lon="4.62407">
        <ele>319.9</ele>
        <time>2024-04-06T06:54:30Z</time>
      </trkpt>
      <trkpt lat="49.97481" lon="4.62438">
        <ele>317.5</ele>
        <time>2024-04-06T06:54:34Z</time>
      </trkpt>
      <trkpt lat="49.97481" lon="4.62451">
        <ele>317</ele>
        <time>2024-04-06T06:54:36Z</time>
      </trkpt>
      <trkpt lat="49.9748" lon="4.62474">
        <ele>315.6</ele>
        <time>2024-04-06T06:54:38Z</time>
      </trkpt>
      <trkpt lat="49.97475" lon="4.625">
        <ele>315.2</ele>
        <time>2024-04-06T06:54:41Z</time>
      </trkpt>
      <trkpt lat="49.97458" lon="4.6254">
        <ele>314.5</ele>
        <time>2024-04-06T06:54:47Z</time>
      </trkpt>
      <trkpt lat="49.97389" lon="4.6268">
        <ele>309</ele>
        <time>2024-04-06T06:55:07Z</time>
      </trkpt>
      <trkpt lat="49.9738" lon="4.62703">
        <ele>308.1</ele>
        <time>2024-04-06T06:55:10Z</time>
      </trkpt>
      <trkpt lat="49.97375" lon="4.62724">
        <ele>306.4</ele>
        <time>2024-04-06T06:55:13Z</time>
      </trkpt>
      <trkpt lat="49.97373" lon="4.62747">
        <ele>304.9</ele>
        <time>2024-04-06T06:55:15Z</time>
      </trkpt>
      <trkpt lat="49.97374" lon="4.62761">
        <ele>305.2</ele>
        <time>2024-04-06T06:55:17Z</time>
      </trkpt>
      <trkpt lat="49.97378" lon="4.62783">
        <ele>306.4</ele>
        <time>2024-04-06T06:55:20Z</time>
      </trkpt>
      <trkpt lat="49.97386" lon="4.62801">
        <ele>308.4</ele>
        <time>2024-04-06T06:55:22Z</time>
      </trkpt>
      <trkpt lat="49.97403" lon="4.6282">
        <ele>308.8</ele>
        <time>2024-04-06T06:55:26Z</time>
      </trkpt>
      <trkpt lat="49.97423" lon="4.62831">
        <ele>309.3</ele>
        <time>2024-04-06T06:55:30Z</time>
      </trkpt>
      <trkpt lat="49.97513" lon="4.62864">
        <ele>315.7</ele>
        <time>2024-04-06T06:55:46Z</time>
      </trkpt>
      <trkpt lat="49.97572" lon="4.62885">
        <ele>318.3</ele>
        <time>2024-04-06T06:55:57Z</time>
      </trkpt>
      <trkpt lat="49.97587" lon="4.62888">
        <ele>318.8</ele>
        <time>2024-04-06T06:56:00Z</time>
      </trkpt>
      <trkpt lat="49.97602" lon="4.62888">
        <ele>318.8</ele>
        <time>2024-04-06T06:56:02Z</time>
      </trkpt>
      <trkpt lat="49.97653" lon="4.62876">
        <ele>318.1</ele>
        <time>2024-04-06T06:56:11Z</time>
      </trkpt>
      <trkpt lat="49.97668" lon="4.62877">
        <ele>318.1</ele>
        <time>2024-04-06T06:56:14Z</time>
      </trkpt>
      <trkpt lat="49.97682" lon="4.62885">
        <ele>318.1</ele>
        <time>2024-04-06T06:56:17Z</time>
      </trkpt>
      <trkpt lat="49.97695" lon="4.62898">
        <ele>318.3</ele>
        <time>2024-04-06T06:56:19Z</time>
      </trkpt>
      <trkpt lat="49.97706" lon="4.62916">
        <ele>318.1</ele>
        <time>2024-04-06T06:56:22Z</time>
      </trkpt>
      <trkpt lat="49.97712" lon="4.62932">
        <ele>319</ele>
        <time>2024-04-06T06:56:24Z</time>
      </trkpt>
      <trkpt lat="49.97747" lon="4.63055">
        <ele>318.6</ele>
        <time>2024-04-06T06:56:40Z</time>
      </trkpt>
      <trkpt lat="49.97846" lon="4.63331">
        <ele>315.5</ele>
        <time>2024-04-06T06:57:16Z</time>
      </trkpt>
      <trkpt lat="49.97854" lon="4.63349">
        <ele>315.9</ele>
        <time>2024-04-06T06:57:18Z</time>
      </trkpt>
      <trkpt lat="49.97872" lon="4.63383">
        <ele>315.5</ele>
        <time>2024-04-06T06:57:24Z</time>
      </trkpt>
      <trkpt lat="49.97984" lon="4.63566">
        <ele>314</ele>
        <time>2024-04-06T06:57:52Z</time>
      </trkpt>
      <trkpt lat="49.97996" lon="4.63591">
        <ele>313.9</ele>
        <time>2024-04-06T06:57:56Z</time>
      </trkpt>
      <trkpt lat="49.98004" lon="4.63617">
        <ele>313</ele>
        <time>2024-04-06T06:57:59Z</time>
      </trkpt>
      <trkpt lat="49.98011" lon="4.63663">
        <ele>311.7</ele>
        <time>2024-04-06T06:58:05Z</time>
      </trkpt>
      <trkpt lat="49.98024" lon="4.63894">
        <ele>304.8</ele>
        <time>2024-04-06T06:58:31Z</time>
      </trkpt>
      <trkpt lat="49.98024" lon="4.63937">
        <ele>302.6</ele>
        <time>2024-04-06T06:58:36Z</time>
      </trkpt>
      <trkpt lat="49.98019" lon="4.63983">
        <ele>301</ele>
        <time>2024-04-06T06:58:41Z</time>
      </trkpt>
      <trkpt lat="49.98012" lon="4.64011">
        <ele>300.3</ele>
        <time>2024-04-06T06:58:45Z</time>
      </trkpt>
      <trkpt lat="49.97976" lon="4.64114">
        <ele>297.6</ele>
        <time>2024-04-06T06:58:58Z</time>
      </trkpt>
      <trkpt lat="49.97952" lon="4.64173">
        <ele>295.6</ele>
        <time>2024-04-06T06:59:06Z</time>
      </trkpt>
      <trkpt lat="49.9793" lon="4.64211">
        <ele>294.1</ele>
        <time>2024-04-06T06:59:12Z</time>
      </trkpt>
      <trkpt lat="49.97875" lon="4.64302">
        <ele>289.3</ele>
        <time>2024-04-06T06:59:26Z</time>
      </trkpt>
      <trkpt lat="49.97865" lon="4.64323">
        <ele>288.7</ele>
        <time>2024-04-06T06:59:29Z</time>
      </trkpt>
      <trkpt lat="49.97858" lon="4.64348">
        <ele>288.4</ele>
        <time>2024-04-06T06:59:33Z</time>
      </trkpt>
      <trkpt lat="49.97857" lon="4.64372">
        <ele>287.8</ele>
        <time>2024-04-06T06:59:35Z</time>
      </trkpt>
      <trkpt lat="49.9786" lon="4.64395">
        <ele>288</ele>
        <time>2024-04-06T06:59:38Z</time>
      </trkpt>
      <trkpt lat="49.97863" lon="4.64406">
        <ele>287.6</ele>
        <time>2024-04-06T06:59:39Z</time>
      </trkpt>
      <trkpt lat="49.97877" lon="4.64432">
        <ele>288.2</ele>
        <time>2024-04-06T06:59:43Z</time>
      </trkpt>
      <trkpt lat="49.97914" lon="4.64482">
        <ele>288.6</ele>
        <time>2024-04-06T06:59:52Z</time>
      </trkpt>
      <trkpt lat="49.97925" lon="4.64505">
        <ele>288.2</ele>
        <time>2024-04-06T06:59:55Z</time>
      </trkpt>
      <trkpt lat="49.97948" lon="4.64559">
        <ele>288.4</ele>
        <time>2024-04-06T07:00:03Z</time>
      </trkpt>
      <trkpt lat="49.97969" lon="4.64603">
        <ele>289.5</ele>
        <time>2024-04-06T07:00:09Z</time>
      </trkpt>
      <trkpt lat="49.97999" lon="4.64649">
        <ele>290.3</ele>
        <time>2024-04-06T07:00:16Z</time>
      </trkpt>
      <trkpt lat="49.98013" lon="4.64675">
        <ele>289.6</ele>
        <time>2024-04-06T07:00:20Z</time>
      </trkpt>
      <trkpt lat="49.98028" lon="4.64713">
        <ele>290.3</ele>
        <time>2024-04-06T07:00:25Z</time>
      </trkpt>
      <trkpt lat="49.98061" lon="4.64811">
        <ele>291.6</ele>
        <time>2024-04-06T07:00:38Z</time>
      </trkpt>
      <trkpt lat="49.98073" lon="4.64844">
        <ele>292.3</ele>
        <time>2024-04-06T07:00:42Z</time>
      </trkpt>
      <trkpt lat="49.98085" lon="4.64872">
        <ele>291.6</ele>
        <time>2024-04-06T07:00:46Z</time>
      </trkpt>
      <trkpt lat="49.98115" lon="4.64916">
        <ele>291.7</ele>
        <time>2024-04-06T07:00:54Z</time>
      </trkpt>
      <trkpt lat="49.98162" lon="4.64975">
        <ele>292.5</ele>
        <time>2024-04-06T07:01:04Z</time>
      </trkpt>
      <trkpt lat="49.98223" lon="4.65059">
        <ele>295.2</ele>
        <time>2024-04-06T07:01:19Z</time>
      </trkpt>
      <trkpt lat="49.98337" lon="4.6524">
        <ele>301.5</ele>
        <time>2024-04-06T07:01:48Z</time>
      </trkpt>
      <trkpt lat="49.98357" lon="4.65277">
        <ele>303.2</ele>
        <time>2024-04-06T07:01:53Z</time>
      </trkpt>
      <trkpt lat="49.98376" lon="4.65326">
        <ele>304</ele>
        <time>2024-04-06T07:02:00Z</time>
      </trkpt>
      <trkpt lat="49.98414" lon="4.65443">
        <ele>307.1</ele>
        <time>2024-04-06T07:02:15Z</time>
      </trkpt>
      <trkpt lat="49.9842" lon="4.65478">
        <ele>306.6</ele>
        <time>2024-04-06T07:02:19Z</time>
      </trkpt>
      <trkpt lat="49.9842" lon="4.65496">
        <ele>306.6</ele>
        <time>2024-04-06T07:02:21Z</time>
      </trkpt>
      <trkpt lat="49.98417" lon="4.65518">
        <ele>307</ele>
        <time>2024-04-06T07:02:24Z</time>
      </trkpt>
      <trkpt lat="49.9841" lon="4.65544">
        <ele>306.5</ele>
        <time>2024-04-06T07:02:27Z</time>
      </trkpt>
      <trkpt lat="49.98385" lon="4.65628">
        <ele>305.9</ele>
        <time>2024-04-06T07:02:37Z</time>
      </trkpt>
      <trkpt lat="49.98381" lon="4.65649">
        <ele>305.7</ele>
        <time>2024-04-06T07:02:40Z</time>
      </trkpt>
      <trkpt lat="49.98379" lon="4.65675">
        <ele>305.7</ele>
        <time>2024-04-06T07:02:43Z</time>
      </trkpt>
      <trkpt lat="49.98381" lon="4.65715">
        <ele>306.3</ele>
        <time>2024-04-06T07:02:48Z</time>
      </trkpt>
      <trkpt lat="49.98388" lon="4.65759">
        <ele>304.3</ele>
        <time>2024-04-06T07:02:53Z</time>
      </trkpt>
      <trkpt lat="49.98417" lon="4.65913">
        <ele>301.8</ele>
        <time>2024-04-06T07:03:11Z</time>
      </trkpt>
      <trkpt lat="49.9842" lon="4.66024">
        <ele>299.5</ele>
        <time>2024-04-06T07:03:24Z</time>
      </trkpt>
      <trkpt lat="49.98422" lon="4.66046">
        <ele>299.2</ele>
        <time>2024-04-06T07:03:26Z</time>
      </trkpt>
      <trkpt lat="49.98429" lon="4.66071">
        <ele>299.3</ele>
        <time>2024-04-06T07:03:29Z</time>
      </trkpt>
      <trkpt lat="49.98437" lon="4.66088">
        <ele>299.7</ele>
        <time>2024-04-06T07:03:32Z</time>
      </trkpt>
      <trkpt lat="49.98451" lon="4.66107">
        <ele>299.1</ele>
        <time>2024-04-06T07:03:35Z</time>
      </trkpt>
      <trkpt lat="49.98472" lon="4.66127">
        <ele>298.2</ele>
        <time>2024-04-06T07:03:40Z</time>
      </trkpt>
      <trkpt lat="49.98589" lon="4.66217">
        <ele>294.6</ele>
        <time>2024-04-06T07:04:03Z</time>
      </trkpt>
      <trkpt lat="49.986" lon="4.66228">
        <ele>294.4</ele>
        <time>2024-04-06T07:04:05Z</time>
      </trkpt>
      <trkpt lat="49.98621" lon="4.66252">
        <ele>294.1</ele>
        <time>2024-04-06T07:04:10Z</time>
      </trkpt>
      <trkpt lat="49.98637" lon="4.66277">
        <ele>294.2</ele>
        <time>2024-04-06T07:04:14Z</time>
      </trkpt>
      <trkpt lat="49.98647" lon="4.66296">
        <ele>292.7</ele>
        <time>2024-04-06T07:04:17Z</time>
      </trkpt>
      <trkpt lat="49.98653" lon="4.66313">
        <ele>292.2</ele>
        <time>2024-04-06T07:04:19Z</time>
      </trkpt>
      <trkpt lat="49.98665" lon="4.66371">
        <ele>292.9</ele>
        <time>2024-04-06T07:04:26Z</time>
      </trkpt>
      <trkpt lat="49.98678" lon="4.6641">
        <ele>292.8</ele>
        <time>2024-04-06T07:04:31Z</time>
      </trkpt>
      <trkpt lat="49.98715" lon="4.66478">
        <ele>290.7</ele>
        <time>2024-04-06T07:04:41Z</time>
      </trkpt>
      <trkpt lat="49.98737" lon="4.66516">
        <ele>290.3</ele>
        <time>2024-04-06T07:04:47Z</time>
      </trkpt>
      <trkpt lat="49.98788" lon="4.66582">
        <ele>288.6</ele>
        <time>2024-04-06T07:04:59Z</time>
      </trkpt>
      <trkpt lat="49.98872" lon="4.66683">
        <ele>285.6</ele>
        <time>2024-04-06T07:05:18Z</time>
      </trkpt>
      <trkpt lat="49.98885" lon="4.66696">
        <ele>285.3</ele>
        <time>2024-04-06T07:05:20Z</time>
      </trkpt>
      <trkpt lat="49.98937" lon="4.66729">
        <ele>282.3</ele>
        <time>2024-04-06T07:05:30Z</time>
      </trkpt>
      <trkpt lat="49.98957" lon="4.6675">
        <ele>281.1</ele>
        <time>2024-04-06T07:05:35Z</time>
      </trkpt>
      <trkpt lat="49.98971" lon="4.66773">
        <ele>280.1</ele>
        <time>2024-04-06T07:05:38Z</time>
      </trkpt>
      <trkpt lat="49.98977" lon="4.66787">
        <ele>279.2</ele>
        <time>2024-04-06T07:05:40Z</time>
      </trkpt>
      <trkpt lat="49.98994" lon="4.66839">
        <ele>277.3</ele>
        <time>2024-04-06T07:05:47Z</time>
      </trkpt>
      <trkpt lat="49.99002" lon="4.66869">
        <ele>275.8</ele>
        <time>2024-04-06T07:05:51Z</time>
      </trkpt>
      <trkpt lat="49.99007" lon="4.669">
        <ele>274.8</ele>
        <time>2024-04-06T07:05:54Z</time>
      </trkpt>
      <trkpt lat="49.99008" lon="4.66938">
        <ele>273.4</ele>
        <time>2024-04-06T07:05:59Z</time>
      </trkpt>
      <trkpt lat="49.98998" lon="4.67037">
        <ele>269.8</ele>
        <time>2024-04-06T07:06:10Z</time>
      </trkpt>
      <trkpt lat="49.98996" lon="4.67073">
        <ele>268.9</ele>
        <time>2024-04-06T07:06:14Z</time>
      </trkpt>
      <trkpt lat="49.98998" lon="4.67116">
        <ele>267.4</ele>
        <time>2024-04-06T07:06:19Z</time>
      </trkpt>
      <trkpt lat="49.99022" lon="4.67322">
        <ele>262.8</ele>
        <time>2024-04-06T07:06:43Z</time>
      </trkpt>
      <trkpt lat="49.99031" lon="4.67383">
        <ele>260.3</ele>
        <time>2024-04-06T07:06:50Z</time>
      </trkpt>
      <trkpt lat="49.99066" lon="4.67533">
        <ele>257.7</ele>
        <time>2024-04-06T07:07:08Z</time>
      </trkpt>
      <trkpt lat="49.99074" lon="4.67574">
        <ele>255.8</ele>
        <time>2024-04-06T07:07:13Z</time>
      </trkpt>
      <trkpt lat="49.99076" lon="4.67618">
        <ele>255.1</ele>
        <time>2024-04-06T07:07:18Z</time>
      </trkpt>
      <trkpt lat="49.99074" lon="4.67661">
        <ele>254.1</ele>
        <time>2024-04-06T07:07:23Z</time>
      </trkpt>
      <trkpt lat="49.9907" lon="4.67697">
        <ele>252.3</ele>
        <time>2024-04-06T07:07:28Z</time>
      </trkpt>
      <trkpt lat="49.99061" lon="4.67725">
        <ele>250.7</ele>
        <time>2024-04-06T07:07:31Z</time>
      </trkpt>
      <trkpt lat="49.99051" lon="4.6774">
        <ele>250.2</ele>
        <time>2024-04-06T07:07:34Z</time>
      </trkpt>
      <trkpt lat="49.99036" lon="4.67749">
        <ele>248.7</ele>
        <time>2024-04-06T07:07:36Z</time>
      </trkpt>
      <trkpt lat="49.99014" lon="4.67756">
        <ele>246.9</ele>
        <time>2024-04-06T07:07:40Z</time>
      </trkpt>
      <trkpt lat="49.98895" lon="4.6778">
        <ele>240.1</ele>
        <time>2024-04-06T07:08:02Z</time>
      </trkpt>
      <trkpt lat="49.98856" lon="4.67784">
        <ele>238.1</ele>
        <time>2024-04-06T07:08:09Z</time>
      </trkpt>
      <trkpt lat="49.98799" lon="4.67781">
        <ele>237</ele>
        <time>2024-04-06T07:08:19Z</time>
      </trkpt>
      <trkpt lat="49.98783" lon="4.67784">
        <ele>236.8</ele>
        <time>2024-04-06T07:08:22Z</time>
      </trkpt>
      <trkpt lat="49.98774" lon="4.67791">
        <ele>236.9</ele>
        <time>2024-04-06T07:08:24Z</time>
      </trkpt>
      <trkpt lat="49.98767" lon="4.67806">
        <ele>236.4</ele>
        <time>2024-04-06T07:08:26Z</time>
      </trkpt>
      <trkpt lat="49.98765" lon="4.67823">
        <ele>235.5</ele>
        <time>2024-04-06T07:08:28Z</time>
      </trkpt>
      <trkpt lat="49.98767" lon="4.67839">
        <ele>234.7</ele>
        <time>2024-04-06T07:08:29Z</time>
      </trkpt>
      <trkpt lat="49.98775" lon="4.67852">
        <ele>234.3</ele>
        <time>2024-04-06T07:08:32Z</time>
      </trkpt>
      <trkpt lat="49.9878" lon="4.67857">
        <ele>234.1</ele>
        <time>2024-04-06T07:08:33Z</time>
      </trkpt>
      <trkpt lat="49.98793" lon="4.67863">
        <ele>233.2</ele>
        <time>2024-04-06T07:08:35Z</time>
      </trkpt>
      <trkpt lat="49.98862" lon="4.67869">
        <ele>229.4</ele>
        <time>2024-04-06T07:08:47Z</time>
      </trkpt>
      <trkpt lat="49.98877" lon="4.67874">
        <ele>229.1</ele>
        <time>2024-04-06T07:08:50Z</time>
      </trkpt>
      <trkpt lat="49.98992" lon="4.67929">
        <ele>222.5</ele>
        <time>2024-04-06T07:09:11Z</time>
      </trkpt>
      <trkpt lat="49.9905" lon="4.67945">
        <ele>219.2</ele>
        <time>2024-04-06T07:09:22Z</time>
      </trkpt>
      <trkpt lat="49.99066" lon="4.67955">
        <ele>219.3</ele>
        <time>2024-04-06T07:09:25Z</time>
      </trkpt>
      <trkpt lat="49.99074" lon="4.67964">
        <ele>218.8</ele>
        <time>2024-04-06T07:09:27Z</time>
      </trkpt>
      <trkpt lat="49.99175" lon="4.68106">
        <ele>211.2</ele>
        <time>2024-04-06T07:09:51Z</time>
      </trkpt>
      <trkpt lat="49.99226" lon="4.6821">
        <ele>205.2</ele>
        <time>2024-04-06T07:10:06Z</time>
      </trkpt>
      <trkpt lat="49.99236" lon="4.68234">
        <ele>204.6</ele>
        <time>2024-04-06T07:10:09Z</time>
      </trkpt>
      <trkpt lat="49.99243" lon="4.68261">
        <ele>203.1</ele>
        <time>2024-04-06T07:10:13Z</time>
      </trkpt>
      <trkpt lat="49.99247" lon="4.68292">
        <ele>201.3</ele>
        <time>2024-04-06T07:10:16Z</time>
      </trkpt>
      <trkpt lat="49.99247" lon="4.68317">
        <ele>200.4</ele>
        <time>2024-04-06T07:10:19Z</time>
      </trkpt>
      <trkpt lat="49.99225" lon="4.6861">
        <ele>192.3</ele>
        <time>2024-04-06T07:10:53Z</time>
      </trkpt>
      <trkpt lat="49.99215" lon="4.68695">
        <ele>190.7</ele>
        <time>2024-04-06T07:11:03Z</time>
      </trkpt>
      <trkpt lat="49.99165" lon="4.69064">
        <ele>183.4</ele>
        <time>2024-04-06T07:11:46Z</time>
      </trkpt>
      <trkpt lat="49.99143" lon="4.69196">
        <ele>179</ele>
        <time>2024-04-06T07:12:01Z</time>
      </trkpt>
      <trkpt lat="49.99123" lon="4.69302">
        <ele>175.4</ele>
        <time>2024-04-06T07:12:14Z</time>
      </trkpt>
      <trkpt lat="49.9911" lon="4.69374">
        <ele>172.3</ele>
        <time>2024-04-06T07:12:23Z</time>
      </trkpt>
      <trkpt lat="49.99107" lon="4.69412">
        <ele>170.3</ele>
        <time>2024-04-06T07:12:27Z</time>
      </trkpt>
      <trkpt lat="49.99105" lon="4.69464">
        <ele>168</ele>
        <time>2024-04-06T07:12:33Z</time>
      </trkpt>
      <trkpt lat="49.99104" lon="4.69507">
        <ele>166.9</ele>
        <time>2024-04-06T07:12:38Z</time>
      </trkpt>
      <trkpt lat="49.99106" lon="4.6961">
        <ele>163.9</ele>
        <time>2024-04-06T07:12:50Z</time>
      </trkpt>
      <trkpt lat="49.99104" lon="4.69646">
        <ele>164.7</ele>
        <time>2024-04-06T07:12:54Z</time>
      </trkpt>
      <trkpt lat="49.991" lon="4.69665">
        <ele>164.5</ele>
        <time>2024-04-06T07:12:56Z</time>
      </trkpt>
      <trkpt lat="49.99091" lon="4.69694">
        <ele>164.7</ele>
        <time>2024-04-06T07:13:00Z</time>
      </trkpt>
      <trkpt lat="49.99068" lon="4.69734">
        <ele>162.9</ele>
        <time>2024-04-06T07:13:06Z</time>
      </trkpt>
      <trkpt lat="49.99057" lon="4.69768">
        <ele>162.5</ele>
        <time>2024-04-06T07:13:10Z</time>
      </trkpt>
      <trkpt lat="49.99054" lon="4.69785">
        <ele>161</ele>
        <time>2024-04-06T07:13:12Z</time>
      </trkpt>
      <trkpt lat="49.99049" lon="4.69856">
        <ele>157.5</ele>
        <time>2024-04-06T07:13:20Z</time>
      </trkpt>
      <trkpt lat="49.99051" lon="4.69878">
        <ele>156.9</ele>
        <time>2024-04-06T07:13:23Z</time>
      </trkpt>
      <trkpt lat="49.99056" lon="4.69896">
        <ele>157.7</ele>
        <time>2024-04-06T07:13:25Z</time>
      </trkpt>
      <trkpt lat="49.99086" lon="4.69964">
        <ele>154.2</ele>
        <time>2024-04-06T07:13:35Z</time>
      </trkpt>
      <trkpt lat="49.99091" lon="4.69981">
        <ele>153.3</ele>
        <time>2024-04-06T07:13:37Z</time>
      </trkpt>
      <trkpt lat="49.99114" lon="4.70094">
        <ele>148.8</ele>
        <time>2024-04-06T07:13:50Z</time>
      </trkpt>
      <trkpt lat="49.9913" lon="4.70137">
        <ele>147.2</ele>
        <time>2024-04-06T07:13:56Z</time>
      </trkpt>
      <trkpt lat="49.99145" lon="4.70159">
        <ele>145.8</ele>
        <time>2024-04-06T07:14:00Z</time>
      </trkpt>
      <trkpt lat="49.99162" lon="4.70177">
        <ele>144.6</ele>
        <time>2024-04-06T07:14:03Z</time>
      </trkpt>
      <trkpt lat="49.99175" lon="4.70186">
        <ele>143.7</ele>
        <time>2024-04-06T07:14:06Z</time>
      </trkpt>
      <trkpt lat="49.99185" lon="4.70188">
        <ele>142.9</ele>
        <time>2024-04-06T07:14:08Z</time>
      </trkpt>
      <trkpt lat="49.992" lon="4.70188">
        <ele>142</ele>
        <time>2024-04-06T07:14:10Z</time>
      </trkpt>
      <trkpt lat="49.99185" lon="4.70188">
        <ele>142.9</ele>
        <time>2024-04-06T07:14:13Z</time>
      </trkpt>
      <trkpt lat="49.99175" lon="4.70186">
        <ele>143.7</ele>
        <time>2024-04-06T07:14:15Z</time>
      </trkpt>
      <trkpt lat="49.99162" lon="4.70177">
        <ele>144.6</ele>
        <time>2024-04-06T07:14:17Z</time>
      </trkpt>
      <trkpt lat="49.99145" lon="4.70159">
        <ele>145.8</ele>
        <time>2024-04-06T07:14:21Z</time>
      </trkpt>
      <trkpt lat="49.9913" lon="4.70137">
        <ele>147.2</ele>
        <time>2024-04-06T07:14:25Z</time>
      </trkpt>
      <trkpt lat="49.99114" lon="4.70094">
        <ele>148.8</ele>
        <time>2024-04-06T07:14:30Z</time>
      </trkpt>
      <trkpt lat="49.99091" lon="4.69981">
        <ele>153.3</ele>
        <time>2024-04-06T07:14:44Z</time>
      </trkpt>
      <trkpt lat="49.99086" lon="4.69964">
        <ele>154.2</ele>
        <time>2024-04-06T07:14:46Z</time>
      </trkpt>
      <trkpt lat="49.99056" lon="4.69896">
        <ele>157.7</ele>
        <time>2024-04-06T07:14:55Z</time>
      </trkpt>
      <trkpt lat="49.99051" lon="4.69878">
        <ele>156.9</ele>
        <time>2024-04-06T07:14:58Z</time>
      </trkpt>
      <trkpt lat="49.99049" lon="4.69856">
        <ele>157.5</ele>
        <time>2024-04-06T07:15:00Z</time>
      </trkpt>
      <trkpt lat="49.99054" lon="4.69785">
        <ele>161</ele>
        <time>2024-04-06T07:15:08Z</time>
      </trkpt>
      <trkpt lat="49.99057" lon="4.69768">
        <ele>162.5</ele>
        <time>2024-04-06T07:15:10Z</time>
      </trkpt>
      <trkpt lat="49.99068" lon="4.69734">
        <ele>162.9</ele>
        <time>2024-04-06T07:15:15Z</time>
      </trkpt>
      <trkpt lat="49.99088" lon="4.69661">
        <ele>161.8</ele>
        <time>2024-04-06T07:15:24Z</time>
      </trkpt>
      <trkpt lat="49.9909" lon="4.69649">
        <ele>161.8</ele>
        <time>2024-04-06T07:15:25Z</time>
      </trkpt>
      <trkpt lat="49.99089" lon="4.69625">
        <ele>160.7</ele>
        <time>2024-04-06T07:15:28Z</time>
      </trkpt>
      <trkpt lat="49.99086" lon="4.69605">
        <ele>159.4</ele>
        <time>2024-04-06T07:15:30Z</time>
      </trkpt>
      <trkpt lat="49.98964" lon="4.69233">
        <ele>141.8</ele>
        <time>2024-04-06T07:16:18Z</time>
      </trkpt>
      <trkpt lat="49.98957" lon="4.69214">
        <ele>141</ele>
        <time>2024-04-06T07:16:21Z</time>
      </trkpt>
      <trkpt lat="49.98945" lon="4.69197">
        <ele>140</ele>
        <time>2024-04-06T07:16:24Z</time>
      </trkpt>
      <trkpt lat="49.98933" lon="4.69187">
        <ele>139.4</ele>
        <time>2024-04-06T07:16:26Z</time>
      </trkpt>
      <trkpt lat="49.98921" lon="4.69181">
        <ele>138.1</ele>
        <time>2024-04-06T07:16:28Z</time>
      </trkpt>
      <trkpt lat="49.98908" lon="4.69179">
        <ele>137.3</ele>
        <time>2024-04-06T07:16:31Z</time>
      </trkpt>
      <trkpt lat="49.989" lon="4.6918">
        <ele>137.2</ele>
        <time>2024-04-06T07:16:32Z</time>
      </trkpt>
      <trkpt lat="49.98835" lon="4.69215">
        <ele>135.5</ele>
        <time>2024-04-06T07:16:44Z</time>
      </trkpt>
      <trkpt lat="49.9881" lon="4.69223">
        <ele>135.7</ele>
        <time>2024-04-06T07:16:49Z</time>
      </trkpt>
      <trkpt lat="49.9879" lon="4.69226">
        <ele>135.3</ele>
        <time>2024-04-06T07:16:52Z</time>
      </trkpt>
      <trkpt lat="49.98767" lon="4.69224">
        <ele>135.6</ele>
        <time>2024-04-06T07:16:56Z</time>
      </trkpt>
      <trkpt lat="49.98531" lon="4.69159">
        <ele>136.6</ele>
        <time>2024-04-06T07:17:39Z</time>
      </trkpt>
      <trkpt lat="49.98483" lon="4.69144">
        <ele>134.8</ele>
        <time>2024-04-06T07:17:48Z</time>
      </trkpt>
      <trkpt lat="49.98456" lon="4.69133">
        <ele>134.2</ele>
        <time>2024-04-06T07:17:53Z</time>
      </trkpt>
      <trkpt lat="49.98326" lon="4.69064">
        <ele>132.1</ele>
        <time>2024-04-06T07:18:17Z</time>
      </trkpt>
      <trkpt lat="49.98041" lon="4.68919">
        <ele>129.5</ele>
        <time>2024-04-06T07:19:11Z</time>
      </trkpt>
      <trkpt lat="49.98018" lon="4.68901">
        <ele>129</ele>
        <time>2024-04-06T07:19:15Z</time>
      </trkpt>
      <trkpt lat="49.97993" lon="4.68874">
        <ele>128.4</ele>
        <time>2024-04-06T07:19:21Z</time>
      </trkpt>
      <trkpt lat="49.97985" lon="4.68864">
        <ele>128.4</ele>
        <time>2024-04-06T07:19:22Z</time>
      </trkpt>
      <trkpt lat="49.97971" lon="4.68841">
        <ele>128</ele>
        <time>2024-04-06T07:19:26Z</time>
      </trkpt>
      <trkpt lat="49.97953" lon="4.688">
        <ele>126.9</ele>
        <time>2024-04-06T07:19:32Z</time>
      </trkpt>
      <trkpt lat="49.97943" lon="4.6877">
        <ele>126</ele>
        <time>2024-04-06T07:19:36Z</time>
      </trkpt>
      <trkpt lat="49.97934" lon="4.68731">
        <ele>125.2</ele>
        <time>2024-04-06T07:19:40Z</time>
      </trkpt>
      <trkpt lat="49.97927" lon="4.68701">
        <ele>124.6</ele>
        <time>2024-04-06T07:19:44Z</time>
      </trkpt>
      <trkpt lat="49.9792" lon="4.68698">
        <ele>124.1</ele>
        <time>2024-04-06T07:19:45Z</time>
      </trkpt>
      <trkpt lat="49.97918" lon="4.68689">
        <ele>124.3</ele>
        <time>2024-04-06T07:19:46Z</time>
      </trkpt>
      <trkpt lat="49.97913" lon="4.68683">
        <ele>124</ele>
        <time>2024-04-06T07:19:47Z</time>
      </trkpt>
      <trkpt lat="49.97908" lon="4.68682">
        <ele>123.5</ele>
        <time>2024-04-06T07:19:48Z</time>
      </trkpt>
      <trkpt lat="49.97896" lon="4.68692">
        <ele>122.5</ele>
        <time>2024-04-06T07:19:51Z</time>
      </trkpt>
      <trkpt lat="49.9789" lon="4.68677">
        <ele>121.5</ele>
        <time>2024-04-06T07:19:53Z</time>
      </trkpt>
      <trkpt lat="49.9784" lon="4.68559">
        <ele>120</ele>
        <time>2024-04-06T07:20:09Z</time>
      </trkpt>
      <trkpt lat="49.97802" lon="4.68399">
        <ele>117.5</ele>
        <time>2024-04-06T07:20:28Z</time>
      </trkpt>
      <trkpt lat="49.97784" lon="4.68281">
        <ele>124.9</ele>
        <time>2024-04-06T07:20:42Z</time>
      </trkpt>
      <trkpt lat="49.97776" lon="4.68218">
        <ele>127.2</ele>
        <time>2024-04-06T07:20:50Z</time>
      </trkpt>
      <trkpt lat="49.97772" lon="4.68162">
        <ele>128.6</ele>
        <time>2024-04-06T07:20:56Z</time>
      </trkpt>
      <trkpt lat="49.97774" lon="4.68128">
        <ele>129.3</ele>
        <time>2024-04-06T07:21:00Z</time>
      </trkpt>
      <trkpt lat="49.97784" lon="4.6807">
        <ele>128.9</ele>
        <time>2024-04-06T07:21:07Z</time>
      </trkpt>
      <trkpt lat="49.978" lon="4.68024">
        <ele>127.7</ele>
        <time>2024-04-06T07:21:13Z</time>
      </trkpt>
      <trkpt lat="49.97819" lon="4.67991">
        <ele>127</ele>
        <time>2024-04-06T07:21:18Z</time>
      </trkpt>
      <trkpt lat="49.97827" lon="4.67982">
        <ele>126.5</ele>
        <time>2024-04-06T07:21:20Z</time>
      </trkpt>
      <trkpt lat="49.97834" lon="4.67977">
        <ele>125.9</ele>
        <time>2024-04-06T07:21:21Z</time>
      </trkpt>
      <trkpt lat="49.9785" lon="4.67972">
        <ele>124.2</ele>
        <time>2024-04-06T07:21:24Z</time>
      </trkpt>
      <trkpt lat="49.97855" lon="4.67966">
        <ele>123.8</ele>
        <time>2024-04-06T07:21:25Z</time>
      </trkpt>
      <trkpt lat="49.97868" lon="4.67937">
        <ele>123.8</ele>
        <time>2024-04-06T07:21:29Z</time>
      </trkpt>
      <trkpt lat="49.97871" lon="4.67922">
        <ele>124.1</ele>
        <time>2024-04-06T07:21:31Z</time>
      </trkpt>
      <trkpt lat="49.97875" lon="4.67899">
        <ele>124.6</ele>
        <time>2024-04-06T07:21:34Z</time>
      </trkpt>
      <trkpt lat="49.9788" lon="4.67882">
        <ele>124.9</ele>
        <time>2024-04-06T07:21:36Z</time>
      </trkpt>
      <trkpt lat="49.9789" lon="4.6787">
        <ele>124.6</ele>
        <time>2024-04-06T07:21:38Z</time>
      </trkpt>
      <trkpt lat="49.97909" lon="4.67838">
        <ele>123.4</ele>
        <time>2024-04-06T07:21:43Z</time>
      </trkpt>
      <trkpt lat="49.9791" lon="4.67828">
        <ele>123.7</ele>
        <time>2024-04-06T07:21:44Z</time>
      </trkpt>
      <trkpt lat="49.9791" lon="4.67818">
        <ele>124</ele>
        <time>2024-04-06T07:21:45Z</time>
      </trkpt>
      <trkpt lat="49.97907" lon="4.67809">
        <ele>124.6</ele>
        <time>2024-04-06T07:21:47Z</time>
      </trkpt>
      <trkpt lat="49.97902" lon="4.67803">
        <ele>125.1</ele>
        <time>2024-04-06T07:21:48Z</time>
      </trkpt>
      <trkpt lat="49.97898" lon="4.67804">
        <ele>125.3</ele>
        <time>2024-04-06T07:21:48Z</time>
      </trkpt>
      <trkpt lat="49.97886" lon="4.67813">
        <ele>126</ele>
        <time>2024-04-06T07:21:51Z</time>
      </trkpt>
      <trkpt lat="49.97845" lon="4.67853">
        <ele>129.8</ele>
        <time>2024-04-06T07:21:59Z</time>
      </trkpt>
      <trkpt lat="49.97834" lon="4.67859">
        <ele>131.7</ele>
        <time>2024-04-06T07:22:01Z</time>
      </trkpt>
      <trkpt lat="49.97819" lon="4.6786">
        <ele>133</ele>
        <time>2024-04-06T07:22:04Z</time>
      </trkpt>
      <trkpt lat="49.9781" lon="4.67857">
        <ele>133.4</ele>
        <time>2024-04-06T07:22:06Z</time>
      </trkpt>
      <trkpt lat="49.97797" lon="4.67848">
        <ele>133.9</ele>
        <time>2024-04-06T07:22:08Z</time>
      </trkpt>
      <trkpt lat="49.97782" lon="4.67838">
        <ele>136.6</ele>
        <time>2024-04-06T07:22:11Z</time>
      </trkpt>
      <trkpt lat="49.97767" lon="4.6783">
        <ele>139.4</ele>
        <time>2024-04-06T07:22:14Z</time>
      </trkpt>
      <trkpt lat="49.97775" lon="4.67803">
        <ele>140.5</ele>
        <time>2024-04-06T07:22:17Z</time>
      </trkpt>
      <trkpt lat="49.97824" lon="4.67658">
        <ele>139.5</ele>
        <time>2024-04-06T07:22:36Z</time>
      </trkpt>
      <trkpt lat="49.97867" lon="4.67524">
        <ele>140.3</ele>
        <time>2024-04-06T07:22:53Z</time>
      </trkpt>
      <trkpt lat="49.97885" lon="4.6748">
        <ele>138.2</ele>
        <time>2024-04-06T07:22:59Z</time>
      </trkpt>
      <trkpt lat="49.97908" lon="4.67415">
        <ele>135.7</ele>
        <time>2024-04-06T07:23:08Z</time>
      </trkpt>
      <trkpt lat="49.97915" lon="4.67388">
        <ele>136.5</ele>
        <time>2024-04-06T07:23:11Z</time>
      </trkpt>
      <trkpt lat="49.97934" lon="4.67272">
        <ele>135.5</ele>
        <time>2024-04-06T07:23:25Z</time>
      </trkpt>
      <trkpt lat="49.97936" lon="4.67247">
        <ele>134.4</ele>
        <time>2024-04-06T07:23:28Z</time>
      </trkpt>
      <trkpt lat="49.97938" lon="4.67185">
        <ele>132.6</ele>
        <time>2024-04-06T07:23:35Z</time>
      </trkpt>
      <trkpt lat="49.97934" lon="4.67134">
        <ele>131.6</ele>
        <time>2024-04-06T07:23:41Z</time>
      </trkpt>
      <trkpt lat="49.97906" lon="4.66954">
        <ele>132.5</ele>
        <time>2024-04-06T07:24:02Z</time>
      </trkpt>
      <trkpt lat="49.97896" lon="4.66924">
        <ele>132.3</ele>
        <time>2024-04-06T07:24:06Z</time>
      </trkpt>
      <trkpt lat="49.97849" lon="4.66827">
        <ele>134.4</ele>
        <time>2024-04-06T07:24:20Z</time>
      </trkpt>
      <trkpt lat="49.97843" lon="4.6681">
        <ele>134.5</ele>
        <time>2024-04-06T07:24:22Z</time>
      </trkpt>
      <trkpt lat="49.97815" lon="4.6671">
        <ele>131.2</ele>
        <time>2024-04-06T07:24:34Z</time>
      </trkpt>
      <trkpt lat="49.97798" lon="4.66652">
        <ele>129.9</ele>
        <time>2024-04-06T07:24:42Z</time>
      </trkpt>
      <trkpt lat="49.97764" lon="4.66518">
        <ele>127.2</ele>
        <time>2024-04-06T07:24:58Z</time>
      </trkpt>
      <trkpt lat="49.97755" lon="4.66497">
        <ele>127.2</ele>
        <time>2024-04-06T07:25:01Z</time>
      </trkpt>
      <trkpt lat="49.97732" lon="4.66471">
        <ele>127.3</ele>
        <time>2024-04-06T07:25:06Z</time>
      </trkpt>
      <trkpt lat="49.97699" lon="4.66436">
        <ele>125.6</ele>
        <time>2024-04-06T07:25:13Z</time>
      </trkpt>
      <trkpt lat="49.97656" lon="4.66398">
        <ele>124.8</ele>
        <time>2024-04-06T07:25:22Z</time>
      </trkpt>
      <trkpt lat="49.97604" lon="4.66363">
        <ele>124</ele>
        <time>2024-04-06T07:25:32Z</time>
      </trkpt>
      <trkpt lat="49.97557" lon="4.66339">
        <ele>124</ele>
        <time>2024-04-06T07:25:41Z</time>
      </trkpt>
      <trkpt lat="49.97532" lon="4.66329">
        <ele>123.3</ele>
        <time>2024-04-06T07:25:45Z</time>
      </trkpt>
      <trkpt lat="49.97489" lon="4.66318">
        <ele>123.7</ele>
        <time>2024-04-06T07:25:53Z</time>
      </trkpt>
      <trkpt lat="49.9746" lon="4.66314">
        <ele>124</ele>
        <time>2024-04-06T07:25:58Z</time>
      </trkpt>
      <trkpt lat="49.9741" lon="4.66311">
        <ele>123.6</ele>
        <time>2024-04-06T07:26:07Z</time>
      </trkpt>
      <trkpt lat="49.97354" lon="4.66317">
        <ele>123.7</ele>
        <time>2024-04-06T07:26:17Z</time>
      </trkpt>
      <trkpt lat="49.97305" lon="4.66331">
        <ele>123.2</ele>
        <time>2024-04-06T07:26:26Z</time>
      </trkpt>
      <trkpt lat="49.97255" lon="4.66351">
        <ele>123.1</ele>
        <time>2024-04-06T07:26:35Z</time>
      </trkpt>
      <trkpt lat="49.9723" lon="4.66367">
        <ele>122.6</ele>
        <time>2024-04-06T07:26:40Z</time>
      </trkpt>
      <trkpt lat="49.97205" lon="4.66389">
        <ele>122</ele>
        <time>2024-04-06T07:26:45Z</time>
      </trkpt>
      <trkpt lat="49.97166" lon="4.6644">
        <ele>122.8</ele>
        <time>2024-04-06T07:26:54Z</time>
      </trkpt>
      <trkpt lat="49.97156" lon="4.66449">
        <ele>123</ele>
        <time>2024-04-06T07:26:56Z</time>
      </trkpt>
      <trkpt lat="49.97149" lon="4.66451">
        <ele>123</ele>
        <time>2024-04-06T07:26:58Z</time>
      </trkpt>
      <trkpt lat="49.9708" lon="4.66444">
        <ele>125.9</ele>
        <time>2024-04-06T07:27:10Z</time>
      </trkpt>
      <trkpt lat="49.97065" lon="4.66445">
        <ele>125.4</ele>
        <time>2024-04-06T07:27:13Z</time>
      </trkpt>
      <trkpt lat="49.97048" lon="4.66446">
        <ele>125.5</ele>
        <time>2024-04-06T07:27:16Z</time>
      </trkpt>
      <trkpt lat="49.97013" lon="4.66456">
        <ele>127.7</ele>
        <time>2024-04-06T07:27:22Z</time>
      </trkpt>
      <trkpt lat="49.96952" lon="4.66465">
        <ele>128.7</ele>
        <time>2024-04-06T07:27:33Z</time>
      </trkpt>
      <trkpt lat="49.9688" lon="4.66467">
        <ele>129.5</ele>
        <time>2024-04-06T07:27:46Z</time>
      </trkpt>
      <trkpt lat="49.96824" lon="4.6646">
        <ele>129.9</ele>
        <time>2024-04-06T07:27:56Z</time>
      </trkpt>
      <trkpt lat="49.96759" lon="4.66445">
        <ele>131.4</ele>
        <time>2024-04-06T07:28:07Z</time>
      </trkpt>
      <trkpt lat="49.96622" lon="4.66401">
        <ele>131</ele>
        <time>2024-04-06T07:28:32Z</time>
      </trkpt>
      <trkpt lat="49.96561" lon="4.66373">
        <ele>129.4</ele>
        <time>2024-04-06T07:28:44Z</time>
      </trkpt>
      <trkpt lat="49.96489" lon="4.66332">
        <ele>129.9</ele>
        <time>2024-04-06T07:28:57Z</time>
      </trkpt>
      <trkpt lat="49.96416" lon="4.66285">
        <ele>128.4</ele>
        <time>2024-04-06T07:29:11Z</time>
      </trkpt>
      <trkpt lat="49.96277" lon="4.66176">
        <ele>128.4</ele>
        <time>2024-04-06T07:29:39Z</time>
      </trkpt>
      <trkpt lat="49.96247" lon="4.66166">
        <ele>128.2</ele>
        <time>2024-04-06T07:29:44Z</time>
      </trkpt>
      <trkpt lat="49.96236" lon="4.66159">
        <ele>128.7</ele>
        <time>2024-04-06T07:29:46Z</time>
      </trkpt>
      <trkpt lat="49.96216" lon="4.66138">
        <ele>128.4</ele>
        <time>2024-04-06T07:29:51Z</time>
      </trkpt>
      <trkpt lat="49.96195" lon="4.66106">
        <ele>127.8</ele>
        <time>2024-04-06T07:29:56Z</time>
      </trkpt>
      <trkpt lat="49.96174" lon="4.66086">
        <ele>127.9</ele>
        <time>2024-04-06T07:30:00Z</time>
      </trkpt>
      <trkpt lat="49.96103" lon="4.66034">
        <ele>129</ele>
        <time>2024-04-06T07:30:14Z</time>
      </trkpt>
      <trkpt lat="49.96046" lon="4.65986">
        <ele>128.4</ele>
        <time>2024-04-06T07:30:26Z</time>
      </trkpt>
      <trkpt lat="49.95809" lon="4.65799">
        <ele>129.7</ele>
        <time>2024-04-06T07:31:13Z</time>
      </trkpt>
      <trkpt lat="49.9562" lon="4.65702">
        <ele>132.5</ele>
        <time>2024-04-06T07:31:49Z</time>
      </trkpt>
      <trkpt lat="49.95484" lon="4.65621">
        <ele>133</ele>
        <time>2024-04-06T07:32:15Z</time>
      </trkpt>
      <trkpt lat="49.95473" lon="4.6562">
        <ele>134.8</ele>
        <time>2024-04-06T07:32:16Z</time>
      </trkpt>
      <trkpt lat="49.95404" lon="4.65573">
        <ele>132.3</ele>
        <time>2024-04-06T07:32:30Z</time>
      </trkpt>
      <trkpt lat="49.95286" lon="4.6551">
        <ele>126.1</ele>
        <time>2024-04-06T07:32:52Z</time>
      </trkpt>
      <trkpt lat="49.95273" lon="4.65505">
        <ele>126</ele>
        <time>2024-04-06T07:32:54Z</time>
      </trkpt>
      <trkpt lat="49.95154" lon="4.65482">
        <ele>128</ele>
        <time>2024-04-06T07:33:16Z</time>
      </trkpt>
      <trkpt lat="49.95029" lon="4.65453">
        <ele>130.3</ele>
        <time>2024-04-06T07:33:38Z</time>
      </trkpt>
      <trkpt lat="49.94894" lon="4.65415">
        <ele>127.6</ele>
        <time>2024-04-06T07:34:03Z</time>
      </trkpt>
      <trkpt lat="49.9484" lon="4.65393">
        <ele>130.2</ele>
        <time>2024-04-06T07:34:13Z</time>
      </trkpt>
      <trkpt lat="49.94802" lon="4.6537">
        <ele>130.5</ele>
        <time>2024-04-06T07:34:20Z</time>
      </trkpt>
      <trkpt lat="49.94646" lon="4.65262">
        <ele>130.3</ele>
        <time>2024-04-06T07:34:50Z</time>
      </trkpt>
      <trkpt lat="49.94615" lon="4.65238">
        <ele>130.3</ele>
        <time>2024-04-06T07:34:56Z</time>
      </trkpt>
      <trkpt lat="49.94598" lon="4.65223">
        <ele>129.6</ele>
        <time>2024-04-06T07:35:00Z</time>
      </trkpt>
      <trkpt lat="49.94564" lon="4.65188">
        <ele>127.8</ele>
        <time>2024-04-06T07:35:07Z</time>
      </trkpt>
      <trkpt lat="49.94559" lon="4.65172">
        <ele>127.3</ele>
        <time>2024-04-06T07:35:09Z</time>
      </trkpt>
      <trkpt lat="49.9457" lon="4.65148">
        <ele>125.7</ele>
        <time>2024-04-06T07:35:13Z</time>
      </trkpt>
      <trkpt lat="49.9457" lon="4.65141">
        <ele>125</ele>
        <time>2024-04-06T07:35:13Z</time>
      </trkpt>
      <trkpt lat="49.94531" lon="4.65071">
        <ele>125.5</ele>
        <time>2024-04-06T07:35:24Z</time>
      </trkpt>
      <trkpt lat="49.94521" lon="4.65048">
        <ele>124.5</ele>
        <time>2024-04-06T07:35:27Z</time>
      </trkpt>
      <trkpt lat="49.94507" lon="4.65011">
        <ele>124.9</ele>
        <time>2024-04-06T07:35:32Z</time>
      </trkpt>
      <trkpt lat="49.94478" lon="4.64871">
        <ele>121.9</ele>
        <time>2024-04-06T07:35:49Z</time>
      </trkpt>
      <trkpt lat="49.94463" lon="4.6481">
        <ele>122.4</ele>
        <time>2024-04-06T07:35:56Z</time>
      </trkpt>
      <trkpt lat="49.94446" lon="4.64725">
        <ele>122.8</ele>
        <time>2024-04-06T07:36:07Z</time>
      </trkpt>
      <trkpt lat="49.94431" lon="4.64613">
        <ele>122</ele>
        <time>2024-04-06T07:36:20Z</time>
      </trkpt>
      <trkpt lat="49.94425" lon="4.64584">
        <ele>122.5</ele>
        <time>2024-04-06T07:36:23Z</time>
      </trkpt>
      <trkpt lat="49.94418" lon="4.64564">
        <ele>123.8</ele>
        <time>2024-04-06T07:36:26Z</time>
      </trkpt>
      <trkpt lat="49.94387" lon="4.64496">
        <ele>126.7</ele>
        <time>2024-04-06T07:36:35Z</time>
      </trkpt>
      <trkpt lat="49.94349" lon="4.64426">
        <ele>127.2</ele>
        <time>2024-04-06T07:36:46Z</time>
      </trkpt>
      <trkpt lat="49.94338" lon="4.64417">
        <ele>127.4</ele>
        <time>2024-04-06T07:36:48Z</time>
      </trkpt>
      <trkpt lat="49.94335" lon="4.64409">
        <ele>126.7</ele>
        <time>2024-04-06T07:36:49Z</time>
      </trkpt>
      <trkpt lat="49.94332" lon="4.64405">
        <ele>126.4</ele>
        <time>2024-04-06T07:36:50Z</time>
      </trkpt>
      <trkpt lat="49.9432" lon="4.64402">
        <ele>127.1</ele>
        <time>2024-04-06T07:36:52Z</time>
      </trkpt>
      <trkpt lat="49.94305" lon="4.64406">
        <ele>129</ele>
        <time>2024-04-06T07:36:55Z</time>
      </trkpt>
      <trkpt lat="49.94289" lon="4.64415">
        <ele>133.4</ele>
        <time>2024-04-06T07:36:58Z</time>
      </trkpt>
      <trkpt lat="49.94104" lon="4.64508">
        <ele>135.5</ele>
        <time>2024-04-06T07:37:32Z</time>
      </trkpt>
      <trkpt lat="49.94098" lon="4.64513">
        <ele>133.8</ele>
        <time>2024-04-06T07:37:33Z</time>
      </trkpt>
      <trkpt lat="49.94084" lon="4.64526">
        <ele>126.5</ele>
        <time>2024-04-06T07:37:36Z</time>
      </trkpt>
      <trkpt lat="49.94071" lon="4.64542">
        <ele>126.5</ele>
        <time>2024-04-06T07:37:39Z</time>
      </trkpt>
      <trkpt lat="49.94054" lon="4.64568">
        <ele>127</ele>
        <time>2024-04-06T07:37:44Z</time>
      </trkpt>
      <trkpt lat="49.93944" lon="4.64822">
        <ele>127.5</ele>
        <time>2024-04-06T07:38:19Z</time>
      </trkpt>
      <trkpt lat="49.9391" lon="4.64881">
        <ele>127.8</ele>
        <time>2024-04-06T07:38:28Z</time>
      </trkpt>
      <trkpt lat="49.93853" lon="4.64954">
        <ele>127.9</ele>
        <time>2024-04-06T07:38:41Z</time>
      </trkpt>
      <trkpt lat="49.93798" lon="4.65004">
        <ele>127.1</ele>
        <time>2024-04-06T07:38:52Z</time>
      </trkpt>
      <trkpt lat="49.93746" lon="4.65044">
        <ele>127.2</ele>
        <time>2024-04-06T07:39:03Z</time>
      </trkpt>
      <trkpt lat="49.937" lon="4.65069">
        <ele>126.8</ele>
        <time>2024-04-06T07:39:11Z</time>
      </trkpt>
      <trkpt lat="49.93671" lon="4.65081">
        <ele>125.4</ele>
        <time>2024-04-06T07:39:17Z</time>
      </trkpt>
      <trkpt lat="49.93644" lon="4.65092">
        <ele>125.7</ele>
        <time>2024-04-06T07:39:21Z</time>
      </trkpt>
      <trkpt lat="49.93623" lon="4.65097">
        <ele>126.2</ele>
        <time>2024-04-06T07:39:25Z</time>
      </trkpt>
      <trkpt lat="49.93597" lon="4.65097">
        <ele>126.2</ele>
        <time>2024-04-06T07:39:30Z</time>
      </trkpt>
      <trkpt lat="49.93542" lon="4.65082">
        <ele>127.3</ele>
        <time>2024-04-06T07:39:40Z</time>
      </trkpt>
      <trkpt lat="49.93557" lon="4.651">
        <ele>128.9</ele>
        <time>2024-04-06T07:39:43Z</time>
      </trkpt>
      <trkpt lat="49.93581" lon="4.65108">
        <ele>128.6</ele>
        <time>2024-04-06T07:39:48Z</time>
      </trkpt>
      <trkpt lat="49.93602" lon="4.6512">
        <ele>131.1</ele>
        <time>2024-04-06T07:39:52Z</time>
      </trkpt>
      <trkpt lat="49.93572" lon="4.6512">
        <ele>132</ele>
        <time>2024-04-06T07:39:57Z</time>
      </trkpt>
      <trkpt lat="49.93509" lon="4.65102">
        <ele>132.8</ele>
        <time>2024-04-06T07:40:08Z</time>
      </trkpt>
      <trkpt lat="49.93512" lon="4.65089">
        <ele>131.7</ele>
        <time>2024-04-06T07:40:10Z</time>
      </trkpt>
      <trkpt lat="49.93512" lon="4.65088">
        <ele>131.6</ele>
        <time>2024-04-06T07:40:10Z</time>
      </trkpt>
      <trkpt lat="49.93564" lon="4.64913">
        <ele>129.4</ele>
        <time>2024-04-06T07:40:32Z</time>
      </trkpt>
      <trkpt lat="49.93579" lon="4.64864">
        <ele>132.3</ele>
        <time>2024-04-06T07:40:38Z</time>
      </trkpt>
      <trkpt lat="49.93585" lon="4.64836">
        <ele>132.9</ele>
        <time>2024-04-06T07:40:42Z</time>
      </trkpt>
      <trkpt lat="49.93587" lon="4.64828">
        <ele>133.1</ele>
        <time>2024-04-06T07:40:43Z</time>
      </trkpt>
      <trkpt lat="49.93589" lon="4.64819">
        <ele>133.3</ele>
        <time>2024-04-06T07:40:44Z</time>
      </trkpt>
      <trkpt lat="49.93588" lon="4.64791">
        <ele>134.8</ele>
        <time>2024-04-06T07:40:47Z</time>
      </trkpt>
      <trkpt lat="49.93585" lon="4.64757">
        <ele>136.7</ele>
        <time>2024-04-06T07:40:51Z</time>
      </trkpt>
      <trkpt lat="49.9358" lon="4.64759">
        <ele>136.9</ele>
        <time>2024-04-06T07:40:52Z</time>
      </trkpt>
      <trkpt lat="49.93564" lon="4.64757">
        <ele>138</ele>
        <time>2024-04-06T07:40:55Z</time>
      </trkpt>
      <trkpt lat="49.93557" lon="4.64751">
        <ele>138.8</ele>
        <time>2024-04-06T07:40:56Z</time>
      </trkpt>
      <trkpt lat="49.93544" lon="4.64728">
        <ele>140.5</ele>
        <time>2024-04-06T07:41:00Z</time>
      </trkpt>
      <trkpt lat="49.93502" lon="4.6462">
        <ele>149.2</ele>
        <time>2024-04-06T07:41:14Z</time>
      </trkpt>
      <trkpt lat="49.93492" lon="4.64578">
        <ele>150.8</ele>
        <time>2024-04-06T07:41:19Z</time>
      </trkpt>
      <trkpt lat="49.93484" lon="4.64548">
        <ele>152.2</ele>
        <time>2024-04-06T07:41:23Z</time>
      </trkpt>
      <trkpt lat="49.93467" lon="4.64576">
        <ele>152.8</ele>
        <time>2024-04-06T07:41:27Z</time>
      </trkpt>
      <trkpt lat="49.93456" lon="4.64587">
        <ele>153.6</ele>
        <time>2024-04-06T07:41:30Z</time>
      </trkpt>
      <trkpt lat="49.93421" lon="4.64633">
        <ele>154.7</ele>
        <time>2024-04-06T07:41:38Z</time>
      </trkpt>
      <trkpt lat="49.9341" lon="4.64641">
        <ele>155.4</ele>
        <time>2024-04-06T07:41:40Z</time>
      </trkpt>
      <trkpt lat="49.93398" lon="4.64637">
        <ele>156.3</ele>
        <time>2024-04-06T07:41:42Z</time>
      </trkpt>
      <trkpt lat="49.93391" lon="4.64627">
        <ele>156.8</ele>
        <time>2024-04-06T07:41:44Z</time>
      </trkpt>
      <trkpt lat="49.93291" lon="4.64442">
        <ele>165.6</ele>
        <time>2024-04-06T07:42:11Z</time>
      </trkpt>
      <trkpt lat="49.93269" lon="4.64422">
        <ele>167</ele>
        <time>2024-04-06T07:42:16Z</time>
      </trkpt>
      <trkpt lat="49.9325" lon="4.64409">
        <ele>169.3</ele>
        <time>2024-04-06T07:42:20Z</time>
      </trkpt>
      <trkpt lat="49.93144" lon="4.64294">
        <ele>174.1</ele>
        <time>2024-04-06T07:42:43Z</time>
      </trkpt>
      <trkpt lat="49.93125" lon="4.64277">
        <ele>175.5</ele>
        <time>2024-04-06T07:42:47Z</time>
      </trkpt>
      <trkpt lat="49.93052" lon="4.64234">
        <ele>173.1</ele>
        <time>2024-04-06T07:43:00Z</time>
      </trkpt>
      <trkpt lat="49.92968" lon="4.64196">
        <ele>172.2</ele>
        <time>2024-04-06T07:43:16Z</time>
      </trkpt>
      <trkpt lat="49.92952" lon="4.6418">
        <ele>172.6</ele>
        <time>2024-04-06T07:43:19Z</time>
      </trkpt>
      <trkpt lat="49.9295" lon="4.64188">
        <ele>172.8</ele>
        <time>2024-04-06T07:43:20Z</time>
      </trkpt>
      <trkpt lat="49.92946" lon="4.64193">
        <ele>172.9</ele>
        <time>2024-04-06T07:43:21Z</time>
      </trkpt>
      <trkpt lat="49.92935" lon="4.64196">
        <ele>173.7</ele>
        <time>2024-04-06T07:43:23Z</time>
      </trkpt>
      <trkpt lat="49.92808" lon="4.64224">
        <ele>176.7</ele>
        <time>2024-04-06T07:43:46Z</time>
      </trkpt>
      <trkpt lat="49.9278" lon="4.64235">
        <ele>175.7</ele>
        <time>2024-04-06T07:43:51Z</time>
      </trkpt>
      <trkpt lat="49.92743" lon="4.64257">
        <ele>174.1</ele>
        <time>2024-04-06T07:43:58Z</time>
      </trkpt>
      <trkpt lat="49.92608" lon="4.64353">
        <ele>174.6</ele>
        <time>2024-04-06T07:44:25Z</time>
      </trkpt>
      <trkpt lat="49.92594" lon="4.64366">
        <ele>172.7</ele>
        <time>2024-04-06T07:44:28Z</time>
      </trkpt>
      <trkpt lat="49.92576" lon="4.64388">
        <ele>170.3</ele>
        <time>2024-04-06T07:44:32Z</time>
      </trkpt>
      <trkpt lat="49.92565" lon="4.64397">
        <ele>167.1</ele>
        <time>2024-04-06T07:44:34Z</time>
      </trkpt>
      <trkpt lat="49.92551" lon="4.64399">
        <ele>167.5</ele>
        <time>2024-04-06T07:44:36Z</time>
      </trkpt>
      <trkpt lat="49.92514" lon="4.64385">
        <ele>164.1</ele>
        <time>2024-04-06T07:44:43Z</time>
      </trkpt>
      <trkpt lat="49.92489" lon="4.64379">
        <ele>162.6</ele>
        <time>2024-04-06T07:44:48Z</time>
      </trkpt>
      <trkpt lat="49.92481" lon="4.64379">
        <ele>161.6</ele>
        <time>2024-04-06T07:44:49Z</time>
      </trkpt>
      <trkpt lat="49.92475" lon="4.64383">
        <ele>159.7</ele>
        <time>2024-04-06T07:44:50Z</time>
      </trkpt>
      <trkpt lat="49.92473" lon="4.644">
        <ele>158.3</ele>
        <time>2024-04-06T07:44:52Z</time>
      </trkpt>
      <trkpt lat="49.92477" lon="4.6442">
        <ele>157.6</ele>
        <time>2024-04-06T07:44:55Z</time>
      </trkpt>
      <trkpt lat="49.92494" lon="4.64461">
        <ele>148.6</ele>
        <time>2024-04-06T07:45:00Z</time>
      </trkpt>
      <trkpt lat="49.92492" lon="4.64481">
        <ele>146.9</ele>
        <time>2024-04-06T07:45:03Z</time>
      </trkpt>
      <trkpt lat="49.92483" lon="4.64496">
        <ele>145.7</ele>
        <time>2024-04-06T07:45:05Z</time>
      </trkpt>
      <trkpt lat="49.92441" lon="4.64542">
        <ele>140.5</ele>
        <time>2024-04-06T07:45:14Z</time>
      </trkpt>
      <trkpt lat="49.92364" lon="4.64644">
        <ele>129.1</ele>
        <time>2024-04-06T07:45:32Z</time>
      </trkpt>
      <trkpt lat="49.92359" lon="4.64652">
        <ele>128.6</ele>
        <time>2024-04-06T07:45:33Z</time>
      </trkpt>
      <trkpt lat="49.92356" lon="4.64658">
        <ele>129.3</ele>
        <time>2024-04-06T07:45:34Z</time>
      </trkpt>
      <trkpt lat="49.92344" lon="4.64683">
        <ele>134.8</ele>
        <time>2024-04-06T07:45:38Z</time>
      </trkpt>
      <trkpt lat="49.92319" lon="4.64754">
        <ele>137.8</ele>
        <time>2024-04-06T07:45:47Z</time>
      </trkpt>
      <trkpt lat="49.92306" lon="4.64806">
        <ele>133</ele>
        <time>2024-04-06T07:45:53Z</time>
      </trkpt>
      <trkpt lat="49.92297" lon="4.64853">
        <ele>138.8</ele>
        <time>2024-04-06T07:45:59Z</time>
      </trkpt>
      <trkpt lat="49.92281" lon="4.64963">
        <ele>138.2</ele>
        <time>2024-04-06T07:46:12Z</time>
      </trkpt>
      <trkpt lat="49.9228" lon="4.6501">
        <ele>138.4</ele>
        <time>2024-04-06T07:46:17Z</time>
      </trkpt>
      <trkpt lat="49.92284" lon="4.6503">
        <ele>137.6</ele>
        <time>2024-04-06T07:46:20Z</time>
      </trkpt>
      <trkpt lat="49.92301" lon="4.65066">
        <ele>136</ele>
        <time>2024-04-06T07:46:25Z</time>
      </trkpt>
      <trkpt lat="49.92314" lon="4.65135">
        <ele>133.7</ele>
        <time>2024-04-06T07:46:33Z</time>
      </trkpt>
      <trkpt lat="49.9232" lon="4.65157">
        <ele>132.5</ele>
        <time>2024-04-06T07:46:36Z</time>
      </trkpt>
      <trkpt lat="49.92428" lon="4.65405">
        <ele>130.5</ele>
        <time>2024-04-06T07:47:10Z</time>
      </trkpt>
      <trkpt lat="49.92442" lon="4.65433">
        <ele>130.6</ele>
        <time>2024-04-06T07:47:14Z</time>
      </trkpt>
      <trkpt lat="49.92449" lon="4.65453">
        <ele>131</ele>
        <time>2024-04-06T07:47:17Z</time>
      </trkpt>
      <trkpt lat="49.92464" lon="4.65505">
        <ele>132.7</ele>
        <time>2024-04-06T07:47:23Z</time>
      </trkpt>
      <trkpt lat="49.92492" lon="4.65559">
        <ele>133.1</ele>
        <time>2024-04-06T07:47:31Z</time>
      </trkpt>
      <trkpt lat="49.92571" lon="4.65697">
        <ele>133.9</ele>
        <time>2024-04-06T07:47:52Z</time>
      </trkpt>
      <trkpt lat="49.92588" lon="4.65727">
        <ele>134</ele>
        <time>2024-04-06T07:47:57Z</time>
      </trkpt>
      <trkpt lat="49.92713" lon="4.65969">
        <ele>135.8</ele>
        <time>2024-04-06T07:48:33Z</time>
      </trkpt>
      <trkpt lat="49.92736" lon="4.66011">
        <ele>135.8</ele>
        <time>2024-04-06T07:48:39Z</time>
      </trkpt>
      <trkpt lat="49.92822" lon="4.66147">
        <ele>133.9</ele>
        <time>2024-04-06T07:49:01Z</time>
      </trkpt>
      <trkpt lat="49.92896" lon="4.66284">
        <ele>133.8</ele>
        <time>2024-04-06T07:49:21Z</time>
      </trkpt>
      <trkpt lat="49.9294" lon="4.66356">
        <ele>132.8</ele>
        <time>2024-04-06T07:49:33Z</time>
      </trkpt>
      <trkpt lat="49.92986" lon="4.66437">
        <ele>133.7</ele>
        <time>2024-04-06T07:49:45Z</time>
      </trkpt>
      <trkpt lat="49.93018" lon="4.66503">
        <ele>132.5</ele>
        <time>2024-04-06T07:49:54Z</time>
      </trkpt>
      <trkpt lat="49.93041" lon="4.66563">
        <ele>131.5</ele>
        <time>2024-04-06T07:50:02Z</time>
      </trkpt>
      <trkpt lat="49.93068" lon="4.6666">
        <ele>132.4</ele>
        <time>2024-04-06T07:50:15Z</time>
      </trkpt>
      <trkpt lat="49.93086" lon="4.66762">
        <ele>132.2</ele>
        <time>2024-04-06T07:50:27Z</time>
      </trkpt>
      <trkpt lat="49.93097" lon="4.66757">
        <ele>129.4</ele>
        <time>2024-04-06T07:50:29Z</time>
      </trkpt>
      <trkpt lat="49.93187" lon="4.66705">
        <ele>129.4</ele>
        <time>2024-04-06T07:50:46Z</time>
      </trkpt>
      <trkpt lat="49.932" lon="4.66698">
        <ele>132.2</ele>
        <time>2024-04-06T07:50:48Z</time>
      </trkpt>
      <trkpt lat="49.9322" lon="4.66789">
        <ele>130.3</ele>
        <time>2024-04-06T07:50:59Z</time>
      </trkpt>
      <trkpt lat="49.93252" lon="4.66917">
        <ele>130.6</ele>
        <time>2024-04-06T07:51:15Z</time>
      </trkpt>
      <trkpt lat="49.93311" lon="4.67175">
        <ele>132.3</ele>
        <time>2024-04-06T07:51:46Z</time>
      </trkpt>
      <trkpt lat="49.93326" lon="4.67271">
        <ele>132</ele>
        <time>2024-04-06T07:51:58Z</time>
      </trkpt>
      <trkpt lat="49.93328" lon="4.6734">
        <ele>131</ele>
        <time>2024-04-06T07:52:06Z</time>
      </trkpt>
      <trkpt lat="49.93325" lon="4.67388">
        <ele>129.8</ele>
        <time>2024-04-06T07:52:11Z</time>
      </trkpt>
      <trkpt lat="49.93321" lon="4.6743">
        <ele>133.4</ele>
        <time>2024-04-06T07:52:16Z</time>
      </trkpt>
      <trkpt lat="49.93308" lon="4.67502">
        <ele>133.5</ele>
        <time>2024-04-06T07:52:24Z</time>
      </trkpt>
      <trkpt lat="49.93296" lon="4.67553">
        <ele>132.4</ele>
        <time>2024-04-06T07:52:31Z</time>
      </trkpt>
      <trkpt lat="49.93264" lon="4.67674">
        <ele>135.9</ele>
        <time>2024-04-06T07:52:46Z</time>
      </trkpt>
      <trkpt lat="49.93247" lon="4.67716">
        <ele>133.9</ele>
        <time>2024-04-06T07:52:51Z</time>
      </trkpt>
      <trkpt lat="49.93228" lon="4.67756">
        <ele>136</ele>
        <time>2024-04-06T07:52:57Z</time>
      </trkpt>
      <trkpt lat="49.932" lon="4.67802">
        <ele>135.6</ele>
        <time>2024-04-06T07:53:04Z</time>
      </trkpt>
      <trkpt lat="49.93172" lon="4.67835">
        <ele>137.7</ele>
        <time>2024-04-06T07:53:11Z</time>
      </trkpt>
      <trkpt lat="49.93146" lon="4.6786">
        <ele>137.3</ele>
        <time>2024-04-06T07:53:16Z</time>
      </trkpt>
      <trkpt lat="49.9308" lon="4.67912">
        <ele>137.5</ele>
        <time>2024-04-06T07:53:29Z</time>
      </trkpt>
      <trkpt lat="49.93038" lon="4.67939">
        <ele>137.1</ele>
        <time>2024-04-06T07:53:37Z</time>
      </trkpt>
      <trkpt lat="49.92844" lon="4.68027">
        <ele>138.8</ele>
        <time>2024-04-06T07:54:13Z</time>
      </trkpt>
      <trkpt lat="49.92822" lon="4.68033">
        <ele>140</ele>
        <time>2024-04-06T07:54:17Z</time>
      </trkpt>
      <trkpt lat="49.92792" lon="4.68038">
        <ele>140.7</ele>
        <time>2024-04-06T07:54:23Z</time>
      </trkpt>
      <trkpt lat="49.9273" lon="4.68039">
        <ele>142.5</ele>
        <time>2024-04-06T07:54:34Z</time>
      </trkpt>
      <trkpt lat="49.92455" lon="4.68015">
        <ele>155.8</ele>
        <time>2024-04-06T07:55:23Z</time>
      </trkpt>
      <trkpt lat="49.92358" lon="4.68001">
        <ele>157.2</ele>
        <time>2024-04-06T07:55:40Z</time>
      </trkpt>
      <trkpt lat="49.92257" lon="4.67975">
        <ele>158</ele>
        <time>2024-04-06T07:55:58Z</time>
      </trkpt>
      <trkpt lat="49.91867" lon="4.67859">
        <ele>163.8</ele>
        <time>2024-04-06T07:57:09Z</time>
      </trkpt>
      <trkpt lat="49.91738" lon="4.67825">
        <ele>165.4</ele>
        <time>2024-04-06T07:57:32Z</time>
      </trkpt>
      <trkpt lat="49.91679" lon="4.67818">
        <ele>166.4</ele>
        <time>2024-04-06T07:57:43Z</time>
      </trkpt>
      <trkpt lat="49.91615" lon="4.67816">
        <ele>167.6</ele>
        <time>2024-04-06T07:57:54Z</time>
      </trkpt>
      <trkpt lat="49.9157" lon="4.67818">
        <ele>167.7</ele>
        <time>2024-04-06T07:58:02Z</time>
      </trkpt>
      <trkpt lat="49.91507" lon="4.67828">
        <ele>168</ele>
        <time>2024-04-06T07:58:13Z</time>
      </trkpt>
      <trkpt lat="49.91427" lon="4.67852">
        <ele>168.9</ele>
        <time>2024-04-06T07:58:28Z</time>
      </trkpt>
      <trkpt lat="49.91357" lon="4.67883">
        <ele>170</ele>
        <time>2024-04-06T07:58:41Z</time>
      </trkpt>
      <trkpt lat="49.91321" lon="4.67902">
        <ele>171</ele>
        <time>2024-04-06T07:58:47Z</time>
      </trkpt>
      <trkpt lat="49.90895" lon="4.68147">
        <ele>167.2</ele>
        <time>2024-04-06T08:00:08Z</time>
      </trkpt>
      <trkpt lat="49.90757" lon="4.68229">
        <ele>158.6</ele>
        <time>2024-04-06T08:00:35Z</time>
      </trkpt>
      <trkpt lat="49.90623" lon="4.68303">
        <ele>150.7</ele>
        <time>2024-04-06T08:01:00Z</time>
      </trkpt>
      <trkpt lat="49.90597" lon="4.68324">
        <ele>149.6</ele>
        <time>2024-04-06T08:01:05Z</time>
      </trkpt>
      <trkpt lat="49.90581" lon="4.68342">
        <ele>149.4</ele>
        <time>2024-04-06T08:01:09Z</time>
      </trkpt>
      <trkpt lat="49.90555" lon="4.68381">
        <ele>148.6</ele>
        <time>2024-04-06T08:01:15Z</time>
      </trkpt>
      <trkpt lat="49.90538" lon="4.68416">
        <ele>147.3</ele>
        <time>2024-04-06T08:01:20Z</time>
      </trkpt>
      <trkpt lat="49.90525" lon="4.68458">
        <ele>147.9</ele>
        <time>2024-04-06T08:01:25Z</time>
      </trkpt>
      <trkpt lat="49.90516" lon="4.68502">
        <ele>146.3</ele>
        <time>2024-04-06T08:01:31Z</time>
      </trkpt>
      <trkpt lat="49.90513" lon="4.68535">
        <ele>146.4</ele>
        <time>2024-04-06T08:01:35Z</time>
      </trkpt>
      <trkpt lat="49.90513" lon="4.68584">
        <ele>146.9</ele>
        <time>2024-04-06T08:01:40Z</time>
      </trkpt>
      <trkpt lat="49.90519" lon="4.68836">
        <ele>134.5</ele>
        <time>2024-04-06T08:02:09Z</time>
      </trkpt>
      <trkpt lat="49.90524" lon="4.69">
        <ele>138.5</ele>
        <time>2024-04-06T08:02:28Z</time>
      </trkpt>
      <trkpt lat="49.90526" lon="4.6902">
        <ele>139.4</ele>
        <time>2024-04-06T08:02:30Z</time>
      </trkpt>
      <trkpt lat="49.90532" lon="4.69042">
        <ele>138.5</ele>
        <time>2024-04-06T08:02:33Z</time>
      </trkpt>
      <trkpt lat="49.90543" lon="4.69062">
        <ele>138.4</ele>
        <time>2024-04-06T08:02:36Z</time>
      </trkpt>
      <trkpt lat="49.90559" lon="4.69079">
        <ele>139.6</ele>
        <time>2024-04-06T08:02:39Z</time>
      </trkpt>
      <trkpt lat="49.90577" lon="4.69092">
        <ele>140.3</ele>
        <time>2024-04-06T08:02:43Z</time>
      </trkpt>
      <trkpt lat="49.90602" lon="4.69098">
        <ele>140.9</ele>
        <time>2024-04-06T08:02:47Z</time>
      </trkpt>
      <trkpt lat="49.90736" lon="4.69091">
        <ele>144</ele>
        <time>2024-04-06T08:03:11Z</time>
      </trkpt>
      <trkpt lat="49.90778" lon="4.69101">
        <ele>144.5</ele>
        <time>2024-04-06T08:03:19Z</time>
      </trkpt>
      <trkpt lat="49.90814" lon="4.69121">
        <ele>146.7</ele>
        <time>2024-04-06T08:03:26Z</time>
      </trkpt>
      <trkpt lat="49.90848" lon="4.69149">
        <ele>148.4</ele>
        <time>2024-04-06T08:03:33Z</time>
      </trkpt>
      <trkpt lat="49.91032" lon="4.69373">
        <ele>158.6</ele>
        <time>2024-04-06T08:04:14Z</time>
      </trkpt>
      <trkpt lat="49.91106" lon="4.69467">
        <ele>160.7</ele>
        <time>2024-04-06T08:04:31Z</time>
      </trkpt>
      <trkpt lat="49.91132" lon="4.69517">
        <ele>161.4</ele>
        <time>2024-04-06T08:04:38Z</time>
      </trkpt>
      <trkpt lat="49.91154" lon="4.69578">
        <ele>163.1</ele>
        <time>2024-04-06T08:04:46Z</time>
      </trkpt>
      <trkpt lat="49.91164" lon="4.69616">
        <ele>164.2</ele>
        <time>2024-04-06T08:04:51Z</time>
      </trkpt>
      <trkpt lat="49.91172" lon="4.69671">
        <ele>163.9</ele>
        <time>2024-04-06T08:04:58Z</time>
      </trkpt>
      <trkpt lat="49.91172" lon="4.69757">
        <ele>165.5</ele>
        <time>2024-04-06T08:05:08Z</time>
      </trkpt>
      <trkpt lat="49.91162" lon="4.69852">
        <ele>166.9</ele>
        <time>2024-04-06T08:05:19Z</time>
      </trkpt>
      <trkpt lat="49.91143" lon="4.69933">
        <ele>162.1</ele>
        <time>2024-04-06T08:05:28Z</time>
      </trkpt>
      <trkpt lat="49.91131" lon="4.69968">
        <ele>161.9</ele>
        <time>2024-04-06T08:05:33Z</time>
      </trkpt>
      <trkpt lat="49.91011" lon="4.70197">
        <ele>147.5</ele>
        <time>2024-04-06T08:06:07Z</time>
      </trkpt>
      <trkpt lat="49.9099" lon="4.7023">
        <ele>145.6</ele>
        <time>2024-04-06T08:06:12Z</time>
      </trkpt>
      <trkpt lat="49.9097" lon="4.70252">
        <ele>144.1</ele>
        <time>2024-04-06T08:06:16Z</time>
      </trkpt>
      <trkpt lat="49.90953" lon="4.70268">
        <ele>143.8</ele>
        <time>2024-04-06T08:06:20Z</time>
      </trkpt>
      <trkpt lat="49.90931" lon="4.70282">
        <ele>143</ele>
        <time>2024-04-06T08:06:24Z</time>
      </trkpt>
      <trkpt lat="49.90906" lon="4.70296">
        <ele>143</ele>
        <time>2024-04-06T08:06:29Z</time>
      </trkpt>
      <trkpt lat="49.90613" lon="4.70436">
        <ele>142.9</ele>
        <time>2024-04-06T08:07:24Z</time>
      </trkpt>
      <trkpt lat="49.9057" lon="4.70453">
        <ele>143.7</ele>
        <time>2024-04-06T08:07:31Z</time>
      </trkpt>
      <trkpt lat="49.90515" lon="4.70468">
        <ele>143.7</ele>
        <time>2024-04-06T08:07:41Z</time>
      </trkpt>
      <trkpt lat="49.90422" lon="4.70498">
        <ele>144.1</ele>
        <time>2024-04-06T08:07:58Z</time>
      </trkpt>
      <trkpt lat="49.90377" lon="4.70502">
        <ele>145.2</ele>
        <time>2024-04-06T08:08:06Z</time>
      </trkpt>
      <trkpt lat="49.90285" lon="4.70497">
        <ele>147.6</ele>
        <time>2024-04-06T08:08:23Z</time>
      </trkpt>
      <trkpt lat="49.90202" lon="4.70488">
        <ele>148.5</ele>
        <time>2024-04-06T08:08:37Z</time>
      </trkpt>
      <trkpt lat="49.90162" lon="4.70481">
        <ele>147.4</ele>
        <time>2024-04-06T08:08:45Z</time>
      </trkpt>
      <trkpt lat="49.90082" lon="4.70462">
        <ele>145.1</ele>
        <time>2024-04-06T08:08:59Z</time>
      </trkpt>
      <trkpt lat="49.89977" lon="4.70447">
        <ele>138.5</ele>
        <time>2024-04-06T08:09:18Z</time>
      </trkpt>
      <trkpt lat="49.89952" lon="4.70441">
        <ele>137.3</ele>
        <time>2024-04-06T08:09:22Z</time>
      </trkpt>
      <trkpt lat="49.89867" lon="4.70413">
        <ele>134.5</ele>
        <time>2024-04-06T08:09:38Z</time>
      </trkpt>
      <trkpt lat="49.89803" lon="4.70397">
        <ele>134</ele>
        <time>2024-04-06T08:09:49Z</time>
      </trkpt>
      <trkpt lat="49.89649" lon="4.70377">
        <ele>138.5</ele>
        <time>2024-04-06T08:10:17Z</time>
      </trkpt>
      <trkpt lat="49.89338" lon="4.70289">
        <ele>156.7</ele>
        <time>2024-04-06T08:11:13Z</time>
      </trkpt>
      <trkpt lat="49.89301" lon="4.70272">
        <ele>156.8</ele>
        <time>2024-04-06T08:11:20Z</time>
      </trkpt>
      <trkpt lat="49.89227" lon="4.70226">
        <ele>151.2</ele>
        <time>2024-04-06T08:11:34Z</time>
      </trkpt>
      <trkpt lat="49.89188" lon="4.70201">
        <ele>149.8</ele>
        <time>2024-04-06T08:11:42Z</time>
      </trkpt>
      <trkpt lat="49.89151" lon="4.70179">
        <ele>158</ele>
        <time>2024-04-06T08:11:49Z</time>
      </trkpt>
      <trkpt lat="49.89118" lon="4.70167">
        <ele>158.4</ele>
        <time>2024-04-06T08:11:55Z</time>
      </trkpt>
      <trkpt lat="49.88996" lon="4.70153">
        <ele>157.1</ele>
        <time>2024-04-06T08:12:16Z</time>
      </trkpt>
      <trkpt lat="49.88931" lon="4.70149">
        <ele>156.4</ele>
        <time>2024-04-06T08:12:28Z</time>
      </trkpt>
      <trkpt lat="49.88895" lon="4.7015">
        <ele>156.7</ele>
        <time>2024-04-06T08:12:34Z</time>
      </trkpt>
      <trkpt lat="49.8887" lon="4.70154">
        <ele>156.4</ele>
        <time>2024-04-06T08:12:39Z</time>
      </trkpt>
      <trkpt lat="49.88192" lon="4.7029">
        <ele>164.7</ele>
        <time>2024-04-06T08:14:41Z</time>
      </trkpt>
      <trkpt lat="49.88111" lon="4.70301">
        <ele>164.5</ele>
        <time>2024-04-06T08:14:55Z</time>
      </trkpt>
      <trkpt lat="49.88058" lon="4.70304">
        <ele>165</ele>
        <time>2024-04-06T08:15:04Z</time>
      </trkpt>
      <trkpt lat="49.88023" lon="4.70312">
        <ele>165.5</ele>
        <time>2024-04-06T08:15:11Z</time>
      </trkpt>
      <trkpt lat="49.88003" lon="4.70321">
        <ele>166.6</ele>
        <time>2024-04-06T08:15:14Z</time>
      </trkpt>
      <trkpt lat="49.87975" lon="4.70345">
        <ele>167.5</ele>
        <time>2024-04-06T08:15:20Z</time>
      </trkpt>
      <trkpt lat="49.87937" lon="4.70387">
        <ele>167</ele>
        <time>2024-04-06T08:15:28Z</time>
      </trkpt>
      <trkpt lat="49.8792" lon="4.70397">
        <ele>168.1</ele>
        <time>2024-04-06T08:15:32Z</time>
      </trkpt>
      <trkpt lat="49.87901" lon="4.70403">
        <ele>169.1</ele>
        <time>2024-04-06T08:15:35Z</time>
      </trkpt>
      <trkpt lat="49.87774" lon="4.70419">
        <ele>176.9</ele>
        <time>2024-04-06T08:15:58Z</time>
      </trkpt>
      <trkpt lat="49.877" lon="4.70419">
        <ele>179.6</ele>
        <time>2024-04-06T08:16:11Z</time>
      </trkpt>
      <trkpt lat="49.87673" lon="4.70416">
        <ele>180.1</ele>
        <time>2024-04-06T08:16:16Z</time>
      </trkpt>
      <trkpt lat="49.87654" lon="4.7041">
        <ele>180</ele>
        <time>2024-04-06T08:16:19Z</time>
      </trkpt>
      <trkpt lat="49.87617" lon="4.70385">
        <ele>178.8</ele>
        <time>2024-04-06T08:16:26Z</time>
      </trkpt>
      <trkpt lat="49.8758" lon="4.70348">
        <ele>176.3</ele>
        <time>2024-04-06T08:16:34Z</time>
      </trkpt>
      <trkpt lat="49.8756" lon="4.70324">
        <ele>174.6</ele>
        <time>2024-04-06T08:16:39Z</time>
      </trkpt>
      <trkpt lat="49.87434" lon="4.70131">
        <ele>166.5</ele>
        <time>2024-04-06T08:17:10Z</time>
      </trkpt>
      <trkpt lat="49.874" lon="4.70075">
        <ele>164.6</ele>
        <time>2024-04-06T08:17:19Z</time>
      </trkpt>
      <trkpt lat="49.87377" lon="4.70025">
        <ele>164.3</ele>
        <time>2024-04-06T08:17:26Z</time>
      </trkpt>
      <trkpt lat="49.87369" lon="4.70006">
        <ele>164</ele>
        <time>2024-04-06T08:17:29Z</time>
      </trkpt>
      <trkpt lat="49.87362" lon="4.69994">
        <ele>162.5</ele>
        <time>2024-04-06T08:17:31Z</time>
      </trkpt>
      <trkpt lat="49.87351" lon="4.69947">
        <ele>165.9</ele>
        <time>2024-04-06T08:17:36Z</time>
      </trkpt>
      <trkpt lat="49.87341" lon="4.69919">
        <ele>166.3</ele>
        <time>2024-04-06T08:17:40Z</time>
      </trkpt>
      <trkpt lat="49.87319" lon="4.69826">
        <ele>171.6</ele>
        <time>2024-04-06T08:17:51Z</time>
      </trkpt>
      <trkpt lat="49.87294" lon="4.69741">
        <ele>175.1</ele>
        <time>2024-04-06T08:18:02Z</time>
      </trkpt>
      <trkpt lat="49.87282" lon="4.6971">
        <ele>176.4</ele>
        <time>2024-04-06T08:18:06Z</time>
      </trkpt>
      <trkpt lat="49.87233" lon="4.69633">
        <ele>180</ele>
        <time>2024-04-06T08:18:19Z</time>
      </trkpt>
      <trkpt lat="49.87196" lon="4.69544">
        <ele>185.6</ele>
        <time>2024-04-06T08:18:31Z</time>
      </trkpt>
      <trkpt lat="49.87191" lon="4.69514">
        <ele>187.1</ele>
        <time>2024-04-06T08:18:34Z</time>
      </trkpt>
      <trkpt lat="49.87186" lon="4.69449">
        <ele>191.7</ele>
        <time>2024-04-06T08:18:42Z</time>
      </trkpt>
      <trkpt lat="49.87191" lon="4.69387">
        <ele>192.6</ele>
        <time>2024-04-06T08:18:49Z</time>
      </trkpt>
      <trkpt lat="49.87196" lon="4.69353">
        <ele>193</ele>
        <time>2024-04-06T08:18:53Z</time>
      </trkpt>
      <trkpt lat="49.87216" lon="4.6925">
        <ele>195.3</ele>
        <time>2024-04-06T08:19:05Z</time>
      </trkpt>
      <trkpt lat="49.87225" lon="4.69143">
        <ele>198.5</ele>
        <time>2024-04-06T08:19:18Z</time>
      </trkpt>
      <trkpt lat="49.87235" lon="4.68984">
        <ele>206.7</ele>
        <time>2024-04-06T08:19:36Z</time>
      </trkpt>
      <trkpt lat="49.87233" lon="4.68686">
        <ele>225.9</ele>
        <time>2024-04-06T08:20:10Z</time>
      </trkpt>
      <trkpt lat="49.8723" lon="4.6858">
        <ele>230.4</ele>
        <time>2024-04-06T08:20:22Z</time>
      </trkpt>
      <trkpt lat="49.87222" lon="4.68495">
        <ele>233.2</ele>
        <time>2024-04-06T08:20:32Z</time>
      </trkpt>
      <trkpt lat="49.8721" lon="4.68412">
        <ele>238.9</ele>
        <time>2024-04-06T08:20:42Z</time>
      </trkpt>
      <trkpt lat="49.87206" lon="4.68351">
        <ele>244.4</ele>
        <time>2024-04-06T08:20:49Z</time>
      </trkpt>
      <trkpt lat="49.87216" lon="4.68271">
        <ele>247.6</ele>
        <time>2024-04-06T08:20:58Z</time>
      </trkpt>
      <trkpt lat="49.8724" lon="4.68158">
        <ele>254.2</ele>
        <time>2024-04-06T08:21:12Z</time>
      </trkpt>
      <trkpt lat="49.87248" lon="4.6809">
        <ele>256.5</ele>
        <time>2024-04-06T08:21:20Z</time>
      </trkpt>
      <trkpt lat="49.87251" lon="4.67925">
        <ele>263.1</ele>
        <time>2024-04-06T08:21:39Z</time>
      </trkpt>
      <trkpt lat="49.87254" lon="4.67847">
        <ele>264.4</ele>
        <time>2024-04-06T08:21:48Z</time>
      </trkpt>
      <trkpt lat="49.87263" lon="4.67782">
        <ele>266.3</ele>
        <time>2024-04-06T08:21:55Z</time>
      </trkpt>
      <trkpt lat="49.8733" lon="4.67506">
        <ele>276.3</ele>
        <time>2024-04-06T08:22:29Z</time>
      </trkpt>
      <trkpt lat="49.87349" lon="4.67418">
        <ele>278</ele>
        <time>2024-04-06T08:22:40Z</time>
      </trkpt>
      <trkpt lat="49.87355" lon="4.67379">
        <ele>278.1</ele>
        <time>2024-04-06T08:22:44Z</time>
      </trkpt>
      <trkpt lat="49.87355" lon="4.67344">
        <ele>278</ele>
        <time>2024-04-06T08:22:48Z</time>
      </trkpt>
      <trkpt lat="49.87348" lon="4.67307">
        <ele>279.9</ele>
        <time>2024-04-06T08:22:53Z</time>
      </trkpt>
      <trkpt lat="49.87333" lon="4.67261">
        <ele>282.2</ele>
        <time>2024-04-06T08:22:59Z</time>
      </trkpt>
      <trkpt lat="49.87318" lon="4.67227">
        <ele>283.3</ele>
        <time>2024-04-06T08:23:04Z</time>
      </trkpt>
      <trkpt lat="49.8731" lon="4.67211">
        <ele>284</ele>
        <time>2024-04-06T08:23:06Z</time>
      </trkpt>
      <trkpt lat="49.87157" lon="4.66962">
        <ele>291.2</ele>
        <time>2024-04-06T08:23:45Z</time>
      </trkpt>
      <trkpt lat="49.87133" lon="4.66931">
        <ele>292.5</ele>
        <time>2024-04-06T08:23:51Z</time>
      </trkpt>
      <trkpt lat="49.87112" lon="4.66908">
        <ele>294</ele>
        <time>2024-04-06T08:23:55Z</time>
      </trkpt>
      <trkpt lat="49.87078" lon="4.66882">
        <ele>296.1</ele>
        <time>2024-04-06T08:24:02Z</time>
      </trkpt>
      <trkpt lat="49.87041" lon="4.66862">
        <ele>298.5</ele>
        <time>2024-04-06T08:24:09Z</time>
      </trkpt>
      <trkpt lat="49.87002" lon="4.66854">
        <ele>301.1</ele>
        <time>2024-04-06T08:24:16Z</time>
      </trkpt>
      <trkpt lat="49.86826" lon="4.6685">
        <ele>312.3</ele>
        <time>2024-04-06T08:24:47Z</time>
      </trkpt>
      <trkpt lat="49.86715" lon="4.6685">
        <ele>309.8</ele>
        <time>2024-04-06T08:25:07Z</time>
      </trkpt>
      <trkpt lat="49.8668" lon="4.66847">
        <ele>306.4</ele>
        <time>2024-04-06T08:25:13Z</time>
      </trkpt>
      <trkpt lat="49.86645" lon="4.66836">
        <ele>302</ele>
        <time>2024-04-06T08:25:20Z</time>
      </trkpt>
      <trkpt lat="49.8663" lon="4.66829">
        <ele>300.5</ele>
        <time>2024-04-06T08:25:23Z</time>
      </trkpt>
      <trkpt lat="49.86524" lon="4.66772">
        <ele>289.9</ele>
        <time>2024-04-06T08:25:43Z</time>
      </trkpt>
      <trkpt lat="49.86475" lon="4.66743">
        <ele>285.2</ele>
        <time>2024-04-06T08:25:52Z</time>
      </trkpt>
      <trkpt lat="49.86453" lon="4.66722">
        <ele>283.6</ele>
        <time>2024-04-06T08:25:56Z</time>
      </trkpt>
      <trkpt lat="49.86418" lon="4.6668">
        <ele>279.1</ele>
        <time>2024-04-06T08:26:04Z</time>
      </trkpt>
      <trkpt lat="49.86396" lon="4.6666">
        <ele>277.3</ele>
        <time>2024-04-06T08:26:09Z</time>
      </trkpt>
      <trkpt lat="49.86375" lon="4.66646">
        <ele>275.1</ele>
        <time>2024-04-06T08:26:13Z</time>
      </trkpt>
      <trkpt lat="49.86312" lon="4.66617">
        <ele>269.5</ele>
        <time>2024-04-06T08:26:25Z</time>
      </trkpt>
      <trkpt lat="49.86289" lon="4.66597">
        <ele>267.8</ele>
        <time>2024-04-06T08:26:29Z</time>
      </trkpt>
      <trkpt lat="49.86267" lon="4.66565">
        <ele>266.2</ele>
        <time>2024-04-06T08:26:35Z</time>
      </trkpt>
      <trkpt lat="49.86254" lon="4.66536">
        <ele>265.4</ele>
        <time>2024-04-06T08:26:39Z</time>
      </trkpt>
      <trkpt lat="49.86145" lon="4.6625">
        <ele>260.4</ele>
        <time>2024-04-06T08:27:17Z</time>
      </trkpt>
      <trkpt lat="49.8613" lon="4.66219">
        <ele>259.3</ele>
        <time>2024-04-06T08:27:21Z</time>
      </trkpt>
      <trkpt lat="49.86114" lon="4.66195">
        <ele>259</ele>
        <time>2024-04-06T08:27:25Z</time>
      </trkpt>
      <trkpt lat="49.86098" lon="4.66179">
        <ele>259.2</ele>
        <time>2024-04-06T08:27:29Z</time>
      </trkpt>
      <trkpt lat="49.86042" lon="4.66136">
        <ele>258.4</ele>
        <time>2024-04-06T08:27:40Z</time>
      </trkpt>
      <trkpt lat="49.86018" lon="4.66118">
        <ele>257.9</ele>
        <time>2024-04-06T08:27:44Z</time>
      </trkpt>
      <trkpt lat="49.86007" lon="4.66105">
        <ele>257.4</ele>
        <time>2024-04-06T08:27:47Z</time>
      </trkpt>
      <trkpt lat="49.86" lon="4.66104">
        <ele>257.5</ele>
        <time>2024-04-06T08:27:48Z</time>
      </trkpt>
      <trkpt lat="49.85943" lon="4.66072">
        <ele>258.6</ele>
        <time>2024-04-06T08:27:59Z</time>
      </trkpt>
      <trkpt lat="49.8593" lon="4.66056">
        <ele>258.5</ele>
        <time>2024-04-06T08:28:02Z</time>
      </trkpt>
      <trkpt lat="49.85904" lon="4.66005">
        <ele>256.7</ele>
        <time>2024-04-06T08:28:09Z</time>
      </trkpt>
      <trkpt lat="49.85894" lon="4.65989">
        <ele>256.1</ele>
        <time>2024-04-06T08:28:12Z</time>
      </trkpt>
      <trkpt lat="49.85842" lon="4.65922">
        <ele>255.1</ele>
        <time>2024-04-06T08:28:24Z</time>
      </trkpt>
      <trkpt lat="49.8582" lon="4.659">
        <ele>255.2</ele>
        <time>2024-04-06T08:28:29Z</time>
      </trkpt>
      <trkpt lat="49.85627" lon="4.65757">
        <ele>252.6</ele>
        <time>2024-04-06T08:29:07Z</time>
      </trkpt>
      <trkpt lat="49.85538" lon="4.65664">
        <ele>252.9</ele>
        <time>2024-04-06T08:29:26Z</time>
      </trkpt>
      <trkpt lat="49.8545" lon="4.65563">
        <ele>251.1</ele>
        <time>2024-04-06T08:29:45Z</time>
      </trkpt>
      <trkpt lat="49.85378" lon="4.65457">
        <ele>252.1</ele>
        <time>2024-04-06T08:30:03Z</time>
      </trkpt>
      <trkpt lat="49.85289" lon="4.65294">
        <ele>253.6</ele>
        <time>2024-04-06T08:30:27Z</time>
      </trkpt>
      <trkpt lat="49.85212" lon="4.65111">
        <ele>257.4</ele>
        <time>2024-04-06T08:30:53Z</time>
      </trkpt>
      <trkpt lat="49.85131" lon="4.64879">
        <ele>258</ele>
        <time>2024-04-06T08:31:23Z</time>
      </trkpt>
      <trkpt lat="49.85102" lon="4.64788">
        <ele>258.6</ele>
        <time>2024-04-06T08:31:34Z</time>
      </trkpt>
      <trkpt lat="49.85084" lon="4.64699">
        <ele>258.1</ele>
        <time>2024-04-06T08:31:45Z</time>
      </trkpt>
      <trkpt lat="49.85072" lon="4.64592">
        <ele>258</ele>
        <time>2024-04-06T08:31:58Z</time>
      </trkpt>
      <trkpt lat="49.85068" lon="4.64535">
        <ele>257.4</ele>
        <time>2024-04-06T08:32:04Z</time>
      </trkpt>
      <trkpt lat="49.85069" lon="4.64503">
        <ele>257</ele>
        <time>2024-04-06T08:32:08Z</time>
      </trkpt>
      <trkpt lat="49.85085" lon="4.64458">
        <ele>255.6</ele>
        <time>2024-04-06T08:32:14Z</time>
      </trkpt>
      <trkpt lat="49.85139" lon="4.64358">
        <ele>250.9</ele>
        <time>2024-04-06T08:32:29Z</time>
      </trkpt>
      <trkpt lat="49.8515" lon="4.64322">
        <ele>249.8</ele>
        <time>2024-04-06T08:32:33Z</time>
      </trkpt>
      <trkpt lat="49.85156" lon="4.64298">
        <ele>249.3</ele>
        <time>2024-04-06T08:32:36Z</time>
      </trkpt>
      <trkpt lat="49.85162" lon="4.64225">
        <ele>250.2</ele>
        <time>2024-04-06T08:32:45Z</time>
      </trkpt>
      <trkpt lat="49.85162" lon="4.63562">
        <ele>261.1</ele>
        <time>2024-04-06T08:34:01Z</time>
      </trkpt>
      <trkpt lat="49.85157" lon="4.62869">
        <ele>277.1</ele>
        <time>2024-04-06T08:35:20Z</time>
      </trkpt>
      <trkpt lat="49.85156" lon="4.62006">
        <ele>300.2</ele>
        <time>2024-04-06T08:36:59Z</time>
      </trkpt>
      <trkpt lat="49.85165" lon="4.62007">
        <ele>300.4</ele>
        <time>2024-04-06T08:37:01Z</time>
      </trkpt>
      <trkpt lat="49.85179" lon="4.62017">
        <ele>299.1</ele>
        <time>2024-04-06T08:37:04Z</time>
      </trkpt>
      <trkpt lat="49.85165" lon="4.62007">
        <ele>300.4</ele>
        <time>2024-04-06T08:37:06Z</time>
      </trkpt>
      <trkpt lat="49.85156" lon="4.62006">
        <ele>300.2</ele>
        <time>2024-04-06T08:37:08Z</time>
      </trkpt>
      <trkpt lat="49.85161" lon="4.61977">
        <ele>301.6</ele>
        <time>2024-04-06T08:37:11Z</time>
      </trkpt>
      <trkpt lat="49.85167" lon="4.61962">
        <ele>302.4</ele>
        <time>2024-04-06T08:37:13Z</time>
      </trkpt>
      <trkpt lat="49.85192" lon="4.61988">
        <ele>300.9</ele>
        <time>2024-04-06T08:37:19Z</time>
      </trkpt>
      <trkpt lat="49.85217" lon="4.62009">
        <ele>299.3</ele>
        <time>2024-04-06T08:37:24Z</time>
      </trkpt>
      <trkpt lat="49.85249" lon="4.62031">
        <ele>297.8</ele>
        <time>2024-04-06T08:37:30Z</time>
      </trkpt>
      <trkpt lat="49.85564" lon="4.62226">
        <ele>280.4</ele>
        <time>2024-04-06T08:38:30Z</time>
      </trkpt>
      <trkpt lat="49.85613" lon="4.62261">
        <ele>278.2</ele>
        <time>2024-04-06T08:38:40Z</time>
      </trkpt>
      <trkpt lat="49.85635" lon="4.6228">
        <ele>276.9</ele>
        <time>2024-04-06T08:38:44Z</time>
      </trkpt>
      <trkpt lat="49.8566" lon="4.6231">
        <ele>275.7</ele>
        <time>2024-04-06T08:38:50Z</time>
      </trkpt>
      <trkpt lat="49.85678" lon="4.62334">
        <ele>274</ele>
        <time>2024-04-06T08:38:54Z</time>
      </trkpt>
      <trkpt lat="49.85702" lon="4.62376">
        <ele>272.1</ele>
        <time>2024-04-06T08:39:01Z</time>
      </trkpt>
      <trkpt lat="49.85723" lon="4.62421">
        <ele>270.9</ele>
        <time>2024-04-06T08:39:07Z</time>
      </trkpt>
      <trkpt lat="49.85774" lon="4.62559">
        <ele>268.3</ele>
        <time>2024-04-06T08:39:25Z</time>
      </trkpt>
      <trkpt lat="49.85799" lon="4.6262">
        <ele>267.7</ele>
        <time>2024-04-06T08:39:34Z</time>
      </trkpt>
      <trkpt lat="49.85823" lon="4.62666">
        <ele>267.1</ele>
        <time>2024-04-06T08:39:40Z</time>
      </trkpt>
      <trkpt lat="49.85842" lon="4.62694">
        <ele>267</ele>
        <time>2024-04-06T08:39:45Z</time>
      </trkpt>
      <trkpt lat="49.85862" lon="4.62719">
        <ele>265.5</ele>
        <time>2024-04-06T08:39:50Z</time>
      </trkpt>
      <trkpt lat="49.85891" lon="4.62746">
        <ele>263.6</ele>
        <time>2024-04-06T08:39:56Z</time>
      </trkpt>
      <trkpt lat="49.85931" lon="4.62771">
        <ele>261.9</ele>
        <time>2024-04-06T08:40:03Z</time>
      </trkpt>
      <trkpt lat="49.85973" lon="4.6279">
        <ele>257</ele>
        <time>2024-04-06T08:40:11Z</time>
      </trkpt>
      <trkpt lat="49.86081" lon="4.62828">
        <ele>249.2</ele>
        <time>2024-04-06T08:40:31Z</time>
      </trkpt>
      <trkpt lat="49.86133" lon="4.62852">
        <ele>245.8</ele>
        <time>2024-04-06T08:40:41Z</time>
      </trkpt>
      <trkpt lat="49.86278" lon="4.62926">
        <ele>244.7</ele>
        <time>2024-04-06T08:41:08Z</time>
      </trkpt>
      <trkpt lat="49.86319" lon="4.62949">
        <ele>245.4</ele>
        <time>2024-04-06T08:41:15Z</time>
      </trkpt>
      <trkpt lat="49.86829" lon="4.63209">
        <ele>259.4</ele>
        <time>2024-04-06T08:42:51Z</time>
      </trkpt>
      <trkpt lat="49.86862" lon="4.63216">
        <ele>260</ele>
        <time>2024-04-06T08:42:57Z</time>
      </trkpt>
      <trkpt lat="49.86876" lon="4.63217">
        <ele>260</ele>
        <time>2024-04-06T08:42:59Z</time>
      </trkpt>
      <trkpt lat="49.86899" lon="4.63212">
        <ele>260</ele>
        <time>2024-04-06T08:43:04Z</time>
      </trkpt>
      <trkpt lat="49.86934" lon="4.63199">
        <ele>260.5</ele>
        <time>2024-04-06T08:43:10Z</time>
      </trkpt>
      <trkpt lat="49.86937" lon="4.63198">
        <ele>260.6</ele>
        <time>2024-04-06T08:43:10Z</time>
      </trkpt>
      <trkpt lat="49.8694" lon="4.61468">
        <ele>245.7</ele>
        <time>2024-04-06T08:46:29Z</time>
      </trkpt>
      <trkpt lat="49.86942" lon="4.61433">
        <ele>245.8</ele>
        <time>2024-04-06T08:46:33Z</time>
      </trkpt>
      <trkpt lat="49.86947" lon="4.61406">
        <ele>245.7</ele>
        <time>2024-04-06T08:46:36Z</time>
      </trkpt>
      <trkpt lat="49.86951" lon="4.61393">
        <ele>245.4</ele>
        <time>2024-04-06T08:46:38Z</time>
      </trkpt>
      <trkpt lat="49.86967" lon="4.61364">
        <ele>244.7</ele>
        <time>2024-04-06T08:46:42Z</time>
      </trkpt>
      <trkpt lat="49.87116" lon="4.61145">
        <ele>248.2</ele>
        <time>2024-04-06T08:47:19Z</time>
      </trkpt>
      <trkpt lat="49.87134" lon="4.61109">
        <ele>248.8</ele>
        <time>2024-04-06T08:47:24Z</time>
      </trkpt>
      <trkpt lat="49.87139" lon="4.61098">
        <ele>249</ele>
        <time>2024-04-06T08:47:25Z</time>
      </trkpt>
      <trkpt lat="49.87165" lon="4.60931">
        <ele>247.9</ele>
        <time>2024-04-06T08:47:45Z</time>
      </trkpt>
      <trkpt lat="49.87169" lon="4.60899">
        <ele>248.2</ele>
        <time>2024-04-06T08:47:49Z</time>
      </trkpt>
      <trkpt lat="49.87171" lon="4.60884">
        <ele>248.5</ele>
        <time>2024-04-06T08:47:51Z</time>
      </trkpt>
      <trkpt lat="49.8731" lon="4.5992">
        <ele>247.1</ele>
        <time>2024-04-06T08:49:44Z</time>
      </trkpt>
      <trkpt lat="49.8732" lon="4.59871">
        <ele>246.2</ele>
        <time>2024-04-06T08:49:50Z</time>
      </trkpt>
      <trkpt lat="49.8733" lon="4.59832">
        <ele>246.8</ele>
        <time>2024-04-06T08:49:55Z</time>
      </trkpt>
      <trkpt lat="49.8734" lon="4.59779">
        <ele>248</ele>
        <time>2024-04-06T08:50:01Z</time>
      </trkpt>
      <trkpt lat="49.87343" lon="4.59742">
        <ele>248.4</ele>
        <time>2024-04-06T08:50:05Z</time>
      </trkpt>
      <trkpt lat="49.87345" lon="4.59684">
        <ele>248.7</ele>
        <time>2024-04-06T08:50:12Z</time>
      </trkpt>
      <trkpt lat="49.87347" lon="4.5959">
        <ele>248.5</ele>
        <time>2024-04-06T08:50:23Z</time>
      </trkpt>
      <trkpt lat="49.87345" lon="4.5951">
        <ele>246.6</ele>
        <time>2024-04-06T08:50:32Z</time>
      </trkpt>
      <trkpt lat="49.87346" lon="4.59491">
        <ele>246</ele>
        <time>2024-04-06T08:50:34Z</time>
      </trkpt>
      <trkpt lat="49.87354" lon="4.59444">
        <ele>245.5</ele>
        <time>2024-04-06T08:50:40Z</time>
      </trkpt>
      <trkpt lat="49.87367" lon="4.59391">
        <ele>245.7</ele>
        <time>2024-04-06T08:50:46Z</time>
      </trkpt>
      <trkpt lat="49.87405" lon="4.59273">
        <ele>245.6</ele>
        <time>2024-04-06T08:51:01Z</time>
      </trkpt>
      <trkpt lat="49.87448" lon="4.5915">
        <ele>245.8</ele>
        <time>2024-04-06T08:51:17Z</time>
      </trkpt>
      <trkpt lat="49.87485" lon="4.59066">
        <ele>245.1</ele>
        <time>2024-04-06T08:51:29Z</time>
      </trkpt>
      <trkpt lat="49.87515" lon="4.59008">
        <ele>245.4</ele>
        <time>2024-04-06T08:51:37Z</time>
      </trkpt>
      <trkpt lat="49.8753" lon="4.58988">
        <ele>244.9</ele>
        <time>2024-04-06T08:51:41Z</time>
      </trkpt>
      <trkpt lat="49.87557" lon="4.58969">
        <ele>244.5</ele>
        <time>2024-04-06T08:51:46Z</time>
      </trkpt>
      <trkpt lat="49.87577" lon="4.58964">
        <ele>243.3</ele>
        <time>2024-04-06T08:51:50Z</time>
      </trkpt>
      <trkpt lat="49.87619" lon="4.58966">
        <ele>240.5</ele>
        <time>2024-04-06T08:51:57Z</time>
      </trkpt>
      <trkpt lat="49.87655" lon="4.58972">
        <ele>240</ele>
        <time>2024-04-06T08:52:04Z</time>
      </trkpt>
      <trkpt lat="49.87699" lon="4.58992">
        <ele>240.5</ele>
        <time>2024-04-06T08:52:12Z</time>
      </trkpt>
      <trkpt lat="49.87771" lon="4.58996">
        <ele>239.2</ele>
        <time>2024-04-06T08:52:25Z</time>
      </trkpt>
      <trkpt lat="49.87782" lon="4.58993">
        <ele>239.1</ele>
        <time>2024-04-06T08:52:27Z</time>
      </trkpt>
      <trkpt lat="49.87814" lon="4.58984">
        <ele>238.7</ele>
        <time>2024-04-06T08:52:33Z</time>
      </trkpt>
      <trkpt lat="49.87823" lon="4.58986">
        <ele>238.7</ele>
        <time>2024-04-06T08:52:34Z</time>
      </trkpt>
      <trkpt lat="49.87831" lon="4.58992">
        <ele>238.8</ele>
        <time>2024-04-06T08:52:36Z</time>
      </trkpt>
      <trkpt lat="49.87839" lon="4.59003">
        <ele>239</ele>
        <time>2024-04-06T08:52:38Z</time>
      </trkpt>
      <trkpt lat="49.87844" lon="4.59013">
        <ele>239.7</ele>
        <time>2024-04-06T08:52:39Z</time>
      </trkpt>
      <trkpt lat="49.87865" lon="4.59065">
        <ele>243.1</ele>
        <time>2024-04-06T08:52:46Z</time>
      </trkpt>
      <trkpt lat="49.87871" lon="4.59074">
        <ele>243.9</ele>
        <time>2024-04-06T08:52:48Z</time>
      </trkpt>
      <trkpt lat="49.87882" lon="4.59085">
        <ele>244.4</ele>
        <time>2024-04-06T08:52:50Z</time>
      </trkpt>
      <trkpt lat="49.88048" lon="4.59154">
        <ele>250.2</ele>
        <time>2024-04-06T08:53:21Z</time>
      </trkpt>
      <trkpt lat="49.88066" lon="4.59158">
        <ele>250.4</ele>
        <time>2024-04-06T08:53:24Z</time>
      </trkpt>
      <trkpt lat="49.88166" lon="4.59159">
        <ele>249.5</ele>
        <time>2024-04-06T08:53:42Z</time>
      </trkpt>
      <trkpt lat="49.8826" lon="4.59145">
        <ele>247.7</ele>
        <time>2024-04-06T08:53:58Z</time>
      </trkpt>
      <trkpt lat="49.88289" lon="4.59145">
        <ele>248.1</ele>
        <time>2024-04-06T08:54:04Z</time>
      </trkpt>
      <trkpt lat="49.88315" lon="4.59141">
        <ele>248.6</ele>
        <time>2024-04-06T08:54:08Z</time>
      </trkpt>
      <trkpt lat="49.88394" lon="4.59108">
        <ele>247.6</ele>
        <time>2024-04-06T08:54:23Z</time>
      </trkpt>
      <trkpt lat="49.88524" lon="4.59037">
        <ele>242.9</ele>
        <time>2024-04-06T08:54:47Z</time>
      </trkpt>
      <trkpt lat="49.88548" lon="4.59026">
        <ele>241.8</ele>
        <time>2024-04-06T08:54:52Z</time>
      </trkpt>
      <trkpt lat="49.88603" lon="4.59007">
        <ele>239.8</ele>
        <time>2024-04-06T08:55:02Z</time>
      </trkpt>
      <trkpt lat="49.88638" lon="4.58997">
        <ele>237.8</ele>
        <time>2024-04-06T08:55:08Z</time>
      </trkpt>
      <trkpt lat="49.8869" lon="4.58994">
        <ele>236.4</ele>
        <time>2024-04-06T08:55:17Z</time>
      </trkpt>
      <trkpt lat="49.88713" lon="4.5899">
        <ele>236.2</ele>
        <time>2024-04-06T08:55:21Z</time>
      </trkpt>
      <trkpt lat="49.8873" lon="4.58983">
        <ele>235.7</ele>
        <time>2024-04-06T08:55:25Z</time>
      </trkpt>
      <trkpt lat="49.88761" lon="4.58962">
        <ele>233.7</ele>
        <time>2024-04-06T08:55:31Z</time>
      </trkpt>
      <trkpt lat="49.88778" lon="4.58957">
        <ele>233.9</ele>
        <time>2024-04-06T08:55:34Z</time>
      </trkpt>
      <trkpt lat="49.8882" lon="4.58956">
        <ele>233</ele>
        <time>2024-04-06T08:55:41Z</time>
      </trkpt>
      <trkpt lat="49.88838" lon="4.58959">
        <ele>232.9</ele>
        <time>2024-04-06T08:55:44Z</time>
      </trkpt>
      <trkpt lat="49.88865" lon="4.5897">
        <ele>232.8</ele>
        <time>2024-04-06T08:55:49Z</time>
      </trkpt>
      <trkpt lat="49.88881" lon="4.58969">
        <ele>232.8</ele>
        <time>2024-04-06T08:55:52Z</time>
      </trkpt>
      <trkpt lat="49.88898" lon="4.58962">
        <ele>232.3</ele>
        <time>2024-04-06T08:55:55Z</time>
      </trkpt>
      <trkpt lat="49.88933" lon="4.58942">
        <ele>230.4</ele>
        <time>2024-04-06T08:56:02Z</time>
      </trkpt>
      <trkpt lat="49.89139" lon="4.58838">
        <ele>228.3</ele>
        <time>2024-04-06T08:56:40Z</time>
      </trkpt>
      <trkpt lat="49.89139" lon="4.58858">
        <ele>229.8</ele>
        <time>2024-04-06T08:56:43Z</time>
      </trkpt>
      <trkpt lat="49.89137" lon="4.58864">
        <ele>230.5</ele>
        <time>2024-04-06T08:56:44Z</time>
      </trkpt>
      <trkpt lat="49.89093" lon="4.5892">
        <ele>237.4</ele>
        <time>2024-04-06T08:56:54Z</time>
      </trkpt>
      <trkpt lat="49.89077" lon="4.58953">
        <ele>239.2</ele>
        <time>2024-04-06T08:56:58Z</time>
      </trkpt>
      <trkpt lat="49.89066" lon="4.58983">
        <ele>241.3</ele>
        <time>2024-04-06T08:57:02Z</time>
      </trkpt>
      <trkpt lat="49.89056" lon="4.59026">
        <ele>244.8</ele>
        <time>2024-04-06T08:57:08Z</time>
      </trkpt>
      <trkpt lat="49.89051" lon="4.59054">
        <ele>245.5</ele>
        <time>2024-04-06T08:57:11Z</time>
      </trkpt>
      <trkpt lat="49.88952" lon="4.59885">
        <ele>294.4</ele>
        <time>2024-04-06T08:58:48Z</time>
      </trkpt>
      <trkpt lat="49.88944" lon="4.59926">
        <ele>296.7</ele>
        <time>2024-04-06T08:58:53Z</time>
      </trkpt>
      <trkpt lat="49.88922" lon="4.60003">
        <ele>301.7</ele>
        <time>2024-04-06T08:59:02Z</time>
      </trkpt>
      <trkpt lat="49.88915" lon="4.60043">
        <ele>304.2</ele>
        <time>2024-04-06T08:59:07Z</time>
      </trkpt>
      <trkpt lat="49.88914" lon="4.6009">
        <ele>307.6</ele>
        <time>2024-04-06T08:59:13Z</time>
      </trkpt>
      <trkpt lat="49.88955" lon="4.60769">
        <ele>346.9</ele>
        <time>2024-04-06T09:00:31Z</time>
      </trkpt>
      <trkpt lat="49.88961" lon="4.60814">
        <ele>349.6</ele>
        <time>2024-04-06T09:00:36Z</time>
      </trkpt>
      <trkpt lat="49.88976" lon="4.60892">
        <ele>353.4</ele>
        <time>2024-04-06T09:00:45Z</time>
      </trkpt>
      <trkpt lat="49.88981" lon="4.60946">
        <ele>356.4</ele>
        <time>2024-04-06T09:00:52Z</time>
      </trkpt>
      <trkpt lat="49.88982" lon="4.61116">
        <ele>364.2</ele>
        <time>2024-04-06T09:01:11Z</time>
      </trkpt>
      <trkpt lat="49.88981" lon="4.61192">
        <ele>367.9</ele>
        <time>2024-04-06T09:01:20Z</time>
      </trkpt>
      <trkpt lat="49.88979" lon="4.61246">
        <ele>369.9</ele>
        <time>2024-04-06T09:01:26Z</time>
      </trkpt>
      <trkpt lat="49.88973" lon="4.61295">
        <ele>371.6</ele>
        <time>2024-04-06T09:01:32Z</time>
      </trkpt>
      <trkpt lat="49.88969" lon="4.61319">
        <ele>372.1</ele>
        <time>2024-04-06T09:01:34Z</time>
      </trkpt>
      <trkpt lat="49.88965" lon="4.6134">
        <ele>372.5</ele>
        <time>2024-04-06T09:01:37Z</time>
      </trkpt>
      <trkpt lat="49.88938" lon="4.61434">
        <ele>374.2</ele>
        <time>2024-04-06T09:01:49Z</time>
      </trkpt>
      <trkpt lat="49.88915" lon="4.61558">
        <ele>371.1</ele>
        <time>2024-04-06T09:02:04Z</time>
      </trkpt>
      <trkpt lat="49.88913" lon="4.61613">
        <ele>369.9</ele>
        <time>2024-04-06T09:02:10Z</time>
      </trkpt>
      <trkpt lat="49.88923" lon="4.61768">
        <ele>364.6</ele>
        <time>2024-04-06T09:02:28Z</time>
      </trkpt>
      <trkpt lat="49.88925" lon="4.61957">
        <ele>358.2</ele>
        <time>2024-04-06T09:02:49Z</time>
      </trkpt>
      <trkpt lat="49.88936" lon="4.62057">
        <ele>353.9</ele>
        <time>2024-04-06T09:03:01Z</time>
      </trkpt>
      <trkpt lat="49.88937" lon="4.62075">
        <ele>353.3</ele>
        <time>2024-04-06T09:03:03Z</time>
      </trkpt>
      <trkpt lat="49.88934" lon="4.62111">
        <ele>351.6</ele>
        <time>2024-04-06T09:03:07Z</time>
      </trkpt>
      <trkpt lat="49.88919" lon="4.62198">
        <ele>347.8</ele>
        <time>2024-04-06T09:03:18Z</time>
      </trkpt>
      <trkpt lat="49.88863" lon="4.62412">
        <ele>339.3</ele>
        <time>2024-04-06T09:03:44Z</time>
      </trkpt>
      <trkpt lat="49.8885" lon="4.62469">
        <ele>337.7</ele>
        <time>2024-04-06T09:03:51Z</time>
      </trkpt>
      <trkpt lat="49.8885" lon="4.62489">
        <ele>337.4</ele>
        <time>2024-04-06T09:03:53Z</time>
      </trkpt>
      <trkpt lat="49.88854" lon="4.62522">
        <ele>337.5</ele>
        <time>2024-04-06T09:03:57Z</time>
      </trkpt>
      <trkpt lat="49.88853" lon="4.62533">
        <ele>337.3</ele>
        <time>2024-04-06T09:03:58Z</time>
      </trkpt>
      <trkpt lat="49.88845" lon="4.62583">
        <ele>335.8</ele>
        <time>2024-04-06T09:04:04Z</time>
      </trkpt>
      <trkpt lat="49.88839" lon="4.62648">
        <ele>332.9</ele>
        <time>2024-04-06T09:04:12Z</time>
      </trkpt>
      <trkpt lat="49.8886" lon="4.62645">
        <ele>334</ele>
        <time>2024-04-06T09:04:16Z</time>
      </trkpt>
      <trkpt lat="49.88879" lon="4.62646">
        <ele>335.1</ele>
        <time>2024-04-06T09:04:19Z</time>
      </trkpt>
      <trkpt lat="49.88888" lon="4.62649">
        <ele>335.6</ele>
        <time>2024-04-06T09:04:21Z</time>
      </trkpt>
      <trkpt lat="49.88901" lon="4.62656">
        <ele>336.1</ele>
        <time>2024-04-06T09:04:23Z</time>
      </trkpt>
      <trkpt lat="49.88915" lon="4.6266">
        <ele>336.9</ele>
        <time>2024-04-06T09:04:26Z</time>
      </trkpt>
      <trkpt lat="49.88941" lon="4.62663">
        <ele>337.9</ele>
        <time>2024-04-06T09:04:30Z</time>
      </trkpt>
      <trkpt lat="49.89007" lon="4.6265">
        <ele>342.1</ele>
        <time>2024-04-06T09:04:42Z</time>
      </trkpt>
      <trkpt lat="49.89044" lon="4.62638">
        <ele>345.3</ele>
        <time>2024-04-06T09:04:49Z</time>
      </trkpt>
      <trkpt lat="49.89057" lon="4.62632">
        <ele>346.6</ele>
        <time>2024-04-06T09:04:51Z</time>
      </trkpt>
      <trkpt lat="49.89129" lon="4.62568">
        <ele>353.4</ele>
        <time>2024-04-06T09:05:06Z</time>
      </trkpt>
      <trkpt lat="49.89163" lon="4.6255">
        <ele>356.1</ele>
        <time>2024-04-06T09:05:12Z</time>
      </trkpt>
      <trkpt lat="49.89184" lon="4.62545">
        <ele>358.4</ele>
        <time>2024-04-06T09:05:16Z</time>
      </trkpt>
      <trkpt lat="49.89235" lon="4.62543">
        <ele>362.4</ele>
        <time>2024-04-06T09:05:25Z</time>
      </trkpt>
      <trkpt lat="49.89341" lon="4.62552">
        <ele>371.1</ele>
        <time>2024-04-06T09:05:44Z</time>
      </trkpt>
      <trkpt lat="49.89392" lon="4.6256">
        <ele>375.3</ele>
        <time>2024-04-06T09:05:53Z</time>
      </trkpt>
      <trkpt lat="49.89414" lon="4.62565">
        <ele>377.7</ele>
        <time>2024-04-06T09:05:57Z</time>
      </trkpt>
      <trkpt lat="49.89437" lon="4.62577">
        <ele>379.2</ele>
        <time>2024-04-06T09:06:02Z</time>
      </trkpt>
      <trkpt lat="49.89487" lon="4.62613">
        <ele>380</ele>
        <time>2024-04-06T09:06:11Z</time>
      </trkpt>
      <trkpt lat="49.89522" lon="4.62652">
        <ele>380.5</ele>
        <time>2024-04-06T09:06:19Z</time>
      </trkpt>
      <trkpt lat="49.89659" lon="4.62828">
        <ele>380.9</ele>
        <time>2024-04-06T09:06:51Z</time>
      </trkpt>
      <trkpt lat="49.89672" lon="4.62859">
        <ele>381.2</ele>
        <time>2024-04-06T09:06:55Z</time>
      </trkpt>
      <trkpt lat="49.89669" lon="4.62862">
        <ele>381.1</ele>
        <time>2024-04-06T09:06:56Z</time>
      </trkpt>
      <trkpt lat="49.89664" lon="4.62871">
        <ele>381.2</ele>
        <time>2024-04-06T09:06:57Z</time>
      </trkpt>
      <trkpt lat="49.89663" lon="4.62882">
        <ele>381.5</ele>
        <time>2024-04-06T09:06:58Z</time>
      </trkpt>
      <trkpt lat="49.89666" lon="4.62892">
        <ele>381.6</ele>
        <time>2024-04-06T09:06:59Z</time>
      </trkpt>
      <trkpt lat="49.89668" lon="4.62897">
        <ele>381.2</ele>
        <time>2024-04-06T09:07:00Z</time>
      </trkpt>
      <trkpt lat="49.89676" lon="4.62903">
        <ele>381.2</ele>
        <time>2024-04-06T09:07:02Z</time>
      </trkpt>
      <trkpt lat="49.89684" lon="4.62901">
        <ele>381.9</ele>
        <time>2024-04-06T09:07:03Z</time>
      </trkpt>
      <trkpt lat="49.89708" lon="4.62911">
        <ele>382.6</ele>
        <time>2024-04-06T09:07:08Z</time>
      </trkpt>
      <trkpt lat="49.89788" lon="4.62993">
        <ele>384.6</ele>
        <time>2024-04-06T09:07:25Z</time>
      </trkpt>
      <trkpt lat="49.89813" lon="4.63021">
        <ele>385.3</ele>
        <time>2024-04-06T09:07:30Z</time>
      </trkpt>
      <trkpt lat="49.90445" lon="4.63815">
        <ele>370.6</ele>
        <time>2024-04-06T09:09:55Z</time>
      </trkpt>
      <trkpt lat="49.9047" lon="4.63845">
        <ele>368.2</ele>
        <time>2024-04-06T09:10:00Z</time>
      </trkpt>
      <trkpt lat="49.9049" lon="4.63863">
        <ele>366.7</ele>
        <time>2024-04-06T09:10:04Z</time>
      </trkpt>
      <trkpt lat="49.90513" lon="4.63877">
        <ele>364.9</ele>
        <time>2024-04-06T09:10:09Z</time>
      </trkpt>
      <trkpt lat="49.90534" lon="4.63886">
        <ele>363.4</ele>
        <time>2024-04-06T09:10:13Z</time>
      </trkpt>
      <trkpt lat="49.90553" lon="4.6389">
        <ele>362.2</ele>
        <time>2024-04-06T09:10:16Z</time>
      </trkpt>
      <trkpt lat="49.90581" lon="4.63891">
        <ele>360.2</ele>
        <time>2024-04-06T09:10:21Z</time>
      </trkpt>
      <trkpt lat="49.90687" lon="4.63889">
        <ele>353.5</ele>
        <time>2024-04-06T09:10:40Z</time>
      </trkpt>
      <trkpt lat="49.90808" lon="4.63864">
        <ele>345.3</ele>
        <time>2024-04-06T09:11:02Z</time>
      </trkpt>
      <trkpt lat="49.90824" lon="4.63868">
        <ele>343.9</ele>
        <time>2024-04-06T09:11:05Z</time>
      </trkpt>
      <trkpt lat="49.90842" lon="4.63878">
        <ele>343.2</ele>
        <time>2024-04-06T09:11:08Z</time>
      </trkpt>
      <trkpt lat="49.90879" lon="4.63904">
        <ele>343</ele>
        <time>2024-04-06T09:11:15Z</time>
      </trkpt>
      <trkpt lat="49.90891" lon="4.63909">
        <ele>342.3</ele>
        <time>2024-04-06T09:11:17Z</time>
      </trkpt>
      <trkpt lat="49.90911" lon="4.63911">
        <ele>340.8</ele>
        <time>2024-04-06T09:11:21Z</time>
      </trkpt>
      <trkpt lat="49.90958" lon="4.63907">
        <ele>338.3</ele>
        <time>2024-04-06T09:11:29Z</time>
      </trkpt>
      <trkpt lat="49.90968" lon="4.63908">
        <ele>337.5</ele>
        <time>2024-04-06T09:11:31Z</time>
      </trkpt>
      <trkpt lat="49.90986" lon="4.63918">
        <ele>335.3</ele>
        <time>2024-04-06T09:11:35Z</time>
      </trkpt>
      <trkpt lat="49.91038" lon="4.63971">
        <ele>331.9</ele>
        <time>2024-04-06T09:11:46Z</time>
      </trkpt>
      <trkpt lat="49.91047" lon="4.63978">
        <ele>330.3</ele>
        <time>2024-04-06T09:11:47Z</time>
      </trkpt>
      <trkpt lat="49.91057" lon="4.63981">
        <ele>330</ele>
        <time>2024-04-06T09:11:49Z</time>
      </trkpt>
      <trkpt lat="49.91107" lon="4.63985">
        <ele>327.6</ele>
        <time>2024-04-06T09:11:58Z</time>
      </trkpt>
      <trkpt lat="49.91128" lon="4.63994">
        <ele>328.1</ele>
        <time>2024-04-06T09:12:02Z</time>
      </trkpt>
      <trkpt lat="49.91137" lon="4.64001">
        <ele>325.9</ele>
        <time>2024-04-06T09:12:04Z</time>
      </trkpt>
      <trkpt lat="49.91146" lon="4.64011">
        <ele>327</ele>
        <time>2024-04-06T09:12:06Z</time>
      </trkpt>
      <trkpt lat="49.91188" lon="4.64093">
        <ele>319.9</ele>
        <time>2024-04-06T09:12:18Z</time>
      </trkpt>
      <trkpt lat="49.91198" lon="4.64106">
        <ele>320.9</ele>
        <time>2024-04-06T09:12:20Z</time>
      </trkpt>
      <trkpt lat="49.91224" lon="4.64135">
        <ele>318.6</ele>
        <time>2024-04-06T09:12:26Z</time>
      </trkpt>
      <trkpt lat="49.91261" lon="4.64168">
        <ele>314.4</ele>
        <time>2024-04-06T09:12:33Z</time>
      </trkpt>
      <trkpt lat="49.91271" lon="4.6418">
        <ele>312.9</ele>
        <time>2024-04-06T09:12:36Z</time>
      </trkpt>
      <trkpt lat="49.91283" lon="4.64202">
        <ele>312.1</ele>
        <time>2024-04-06T09:12:39Z</time>
      </trkpt>
      <trkpt lat="49.91287" lon="4.64215">
        <ele>311.2</ele>
        <time>2024-04-06T09:12:41Z</time>
      </trkpt>
      <trkpt lat="49.91308" lon="4.64334">
        <ele>307.8</ele>
        <time>2024-04-06T09:12:55Z</time>
      </trkpt>
      <trkpt lat="49.9134" lon="4.64443">
        <ele>303.3</ele>
        <time>2024-04-06T09:13:08Z</time>
      </trkpt>
      <trkpt lat="49.91366" lon="4.64519">
        <ele>300</ele>
        <time>2024-04-06T09:13:18Z</time>
      </trkpt>
      <trkpt lat="49.91393" lon="4.64586">
        <ele>297</ele>
        <time>2024-04-06T09:13:27Z</time>
      </trkpt>
      <trkpt lat="49.91462" lon="4.64745">
        <ele>288</ele>
        <time>2024-04-06T09:13:49Z</time>
      </trkpt>
      <trkpt lat="49.91479" lon="4.64779">
        <ele>287.2</ele>
        <time>2024-04-06T09:13:54Z</time>
      </trkpt>
      <trkpt lat="49.915" lon="4.64808">
        <ele>283.6</ele>
        <time>2024-04-06T09:13:59Z</time>
      </trkpt>
      <trkpt lat="49.91509" lon="4.64817">
        <ele>283.5</ele>
        <time>2024-04-06T09:14:01Z</time>
      </trkpt>
      <trkpt lat="49.91526" lon="4.64827">
        <ele>283.6</ele>
        <time>2024-04-06T09:14:04Z</time>
      </trkpt>
      <trkpt lat="49.91548" lon="4.64836">
        <ele>280.6</ele>
        <time>2024-04-06T09:14:08Z</time>
      </trkpt>
      <trkpt lat="49.91562" lon="4.64838">
        <ele>279.4</ele>
        <time>2024-04-06T09:14:11Z</time>
      </trkpt>
      <trkpt lat="49.9165" lon="4.64839">
        <ele>273.7</ele>
        <time>2024-04-06T09:14:27Z</time>
      </trkpt>
      <trkpt lat="49.91746" lon="4.64855">
        <ele>269.4</ele>
        <time>2024-04-06T09:14:44Z</time>
      </trkpt>
      <trkpt lat="49.91762" lon="4.64854">
        <ele>268.6</ele>
        <time>2024-04-06T09:14:47Z</time>
      </trkpt>
      <trkpt lat="49.91782" lon="4.64849">
        <ele>267</ele>
        <time>2024-04-06T09:14:50Z</time>
      </trkpt>
      <trkpt lat="49.91801" lon="4.64838">
        <ele>263.5</ele>
        <time>2024-04-06T09:14:54Z</time>
      </trkpt>
      <trkpt lat="49.91819" lon="4.64821">
        <ele>262.9</ele>
        <time>2024-04-06T09:14:58Z</time>
      </trkpt>
      <trkpt lat="49.91873" lon="4.6475">
        <ele>257.7</ele>
        <time>2024-04-06T09:15:10Z</time>
      </trkpt>
      <trkpt lat="49.91927" lon="4.64691">
        <ele>252.7</ele>
        <time>2024-04-06T09:15:22Z</time>
      </trkpt>
      <trkpt lat="49.91947" lon="4.64662">
        <ele>250.8</ele>
        <time>2024-04-06T09:15:27Z</time>
      </trkpt>
      <trkpt lat="49.91968" lon="4.64622">
        <ele>249.4</ele>
        <time>2024-04-06T09:15:33Z</time>
      </trkpt>
      <trkpt lat="49.91993" lon="4.64586">
        <ele>247.6</ele>
        <time>2024-04-06T09:15:39Z</time>
      </trkpt>
      <trkpt lat="49.92018" lon="4.64563">
        <ele>244.5</ele>
        <time>2024-04-06T09:15:44Z</time>
      </trkpt>
      <trkpt lat="49.92039" lon="4.64548">
        <ele>243.4</ele>
        <time>2024-04-06T09:15:48Z</time>
      </trkpt>
      <trkpt lat="49.92069" lon="4.64535">
        <ele>240.2</ele>
        <time>2024-04-06T09:15:54Z</time>
      </trkpt>
      <trkpt lat="49.92188" lon="4.64495">
        <ele>232.4</ele>
        <time>2024-04-06T09:16:15Z</time>
      </trkpt>
      <trkpt lat="49.92209" lon="4.6449">
        <ele>232</ele>
        <time>2024-04-06T09:16:19Z</time>
      </trkpt>
      <trkpt lat="49.92262" lon="4.64489">
        <ele>227.6</ele>
        <time>2024-04-06T09:16:29Z</time>
      </trkpt>
      <trkpt lat="49.92283" lon="4.64485">
        <ele>225.5</ele>
        <time>2024-04-06T09:16:32Z</time>
      </trkpt>
      <trkpt lat="49.92298" lon="4.64478">
        <ele>224</ele>
        <time>2024-04-06T09:16:35Z</time>
      </trkpt>
      <trkpt lat="49.92327" lon="4.64458">
        <ele>222.4</ele>
        <time>2024-04-06T09:16:41Z</time>
      </trkpt>
      <trkpt lat="49.92354" lon="4.64433">
        <ele>218.7</ele>
        <time>2024-04-06T09:16:46Z</time>
      </trkpt>
      <trkpt lat="49.92371" lon="4.64409">
        <ele>216.9</ele>
        <time>2024-04-06T09:16:50Z</time>
      </trkpt>
      <trkpt lat="49.9238" lon="4.64393">
        <ele>217.4</ele>
        <time>2024-04-06T09:16:53Z</time>
      </trkpt>
      <trkpt lat="49.92393" lon="4.64365">
        <ele>213.1</ele>
        <time>2024-04-06T09:16:57Z</time>
      </trkpt>
      <trkpt lat="49.92421" lon="4.64286">
        <ele>210.1</ele>
        <time>2024-04-06T09:17:07Z</time>
      </trkpt>
      <trkpt lat="49.9243" lon="4.64268">
        <ele>210.2</ele>
        <time>2024-04-06T09:17:10Z</time>
      </trkpt>
      <trkpt lat="49.92442" lon="4.64253">
        <ele>208.6</ele>
        <time>2024-04-06T09:17:12Z</time>
      </trkpt>
      <trkpt lat="49.92453" lon="4.64249">
        <ele>207.7</ele>
        <time>2024-04-06T09:17:14Z</time>
      </trkpt>
      <trkpt lat="49.92461" lon="4.6425">
        <ele>207.4</ele>
        <time>2024-04-06T09:17:16Z</time>
      </trkpt>
      <trkpt lat="49.92504" lon="4.64274">
        <ele>205</ele>
        <time>2024-04-06T09:17:24Z</time>
      </trkpt>
      <trkpt lat="49.92528" lon="4.64273">
        <ele>204</ele>
        <time>2024-04-06T09:17:28Z</time>
      </trkpt>
      <trkpt lat="49.92665" lon="4.64224">
        <ele>192.8</ele>
        <time>2024-04-06T09:17:53Z</time>
      </trkpt>
      <trkpt lat="49.92746" lon="4.64202">
        <ele>185.5</ele>
        <time>2024-04-06T09:18:08Z</time>
      </trkpt>
      <trkpt lat="49.92804" lon="4.64193">
        <ele>183.3</ele>
        <time>2024-04-06T09:18:18Z</time>
      </trkpt>
      <trkpt lat="49.92951" lon="4.6416">
        <ele>172.7</ele>
        <time>2024-04-06T09:18:45Z</time>
      </trkpt>
      <trkpt lat="49.93359" lon="4.64051">
        <ele>148.8</ele>
        <time>2024-04-06T09:19:58Z</time>
      </trkpt>
      <trkpt lat="49.93438" lon="4.64031">
        <ele>145.3</ele>
        <time>2024-04-06T09:20:13Z</time>
      </trkpt>
      <trkpt lat="49.9348" lon="4.64024">
        <ele>142.6</ele>
        <time>2024-04-06T09:20:20Z</time>
      </trkpt>
      <trkpt lat="49.93477" lon="4.64004">
        <ele>142.1</ele>
        <time>2024-04-06T09:20:23Z</time>
      </trkpt>
      <trkpt lat="49.93469" lon="4.63993">
        <ele>142.2</ele>
        <time>2024-04-06T09:20:24Z</time>
      </trkpt>
      <trkpt lat="49.93454" lon="4.63981">
        <ele>142.9</ele>
        <time>2024-04-06T09:20:27Z</time>
      </trkpt>
      <trkpt lat="49.93328" lon="4.63878">
        <ele>141.9</ele>
        <time>2024-04-06T09:20:53Z</time>
      </trkpt>
      <trkpt lat="49.93312" lon="4.63862">
        <ele>142</ele>
        <time>2024-04-06T09:20:56Z</time>
      </trkpt>
      <trkpt lat="49.93294" lon="4.63835">
        <ele>142</ele>
        <time>2024-04-06T09:21:01Z</time>
      </trkpt>
      <trkpt lat="49.93288" lon="4.6382">
        <ele>142</ele>
        <time>2024-04-06T09:21:03Z</time>
      </trkpt>
      <trkpt lat="49.93283" lon="4.63803">
        <ele>141.9</ele>
        <time>2024-04-06T09:21:05Z</time>
      </trkpt>
      <trkpt lat="49.93266" lon="4.63711">
        <ele>141.7</ele>
        <time>2024-04-06T09:21:16Z</time>
      </trkpt>
      <trkpt lat="49.9326" lon="4.6369">
        <ele>141.6</ele>
        <time>2024-04-06T09:21:18Z</time>
      </trkpt>
      <trkpt lat="49.93255" lon="4.63673">
        <ele>141.8</ele>
        <time>2024-04-06T09:21:20Z</time>
      </trkpt>
      <trkpt lat="49.93241" lon="4.63643">
        <ele>142.4</ele>
        <time>2024-04-06T09:21:25Z</time>
      </trkpt>
      <trkpt lat="49.93198" lon="4.63584">
        <ele>141.6</ele>
        <time>2024-04-06T09:21:35Z</time>
      </trkpt>
      <trkpt lat="49.9309" lon="4.63452">
        <ele>143.6</ele>
        <time>2024-04-06T09:21:59Z</time>
      </trkpt>
      <trkpt lat="49.93079" lon="4.63433">
        <ele>143.7</ele>
        <time>2024-04-06T09:22:02Z</time>
      </trkpt>
      <trkpt lat="49.93019" lon="4.63281">
        <ele>145.7</ele>
        <time>2024-04-06T09:22:23Z</time>
      </trkpt>
      <trkpt lat="49.93011" lon="4.63248">
        <ele>145.7</ele>
        <time>2024-04-06T09:22:27Z</time>
      </trkpt>
      <trkpt lat="49.93004" lon="4.63201">
        <ele>143.4</ele>
        <time>2024-04-06T09:22:32Z</time>
      </trkpt>
      <trkpt lat="49.92991" lon="4.63079">
        <ele>141.9</ele>
        <time>2024-04-06T09:22:46Z</time>
      </trkpt>
      <trkpt lat="49.92985" lon="4.62991">
        <ele>141.4</ele>
        <time>2024-04-06T09:22:57Z</time>
      </trkpt>
      <trkpt lat="49.92984" lon="4.62922">
        <ele>144.2</ele>
        <time>2024-04-06T09:23:04Z</time>
      </trkpt>
      <trkpt lat="49.92984" lon="4.62881">
        <ele>145.6</ele>
        <time>2024-04-06T09:23:09Z</time>
      </trkpt>
      <trkpt lat="49.92988" lon="4.62826">
        <ele>144.7</ele>
        <time>2024-04-06T09:23:16Z</time>
      </trkpt>
      <trkpt lat="49.93006" lon="4.62738">
        <ele>136</ele>
        <time>2024-04-06T09:23:26Z</time>
      </trkpt>
      <trkpt lat="49.93013" lon="4.62716">
        <ele>138.8</ele>
        <time>2024-04-06T09:23:29Z</time>
      </trkpt>
      <trkpt lat="49.93021" lon="4.62701">
        <ele>137.7</ele>
        <time>2024-04-06T09:23:31Z</time>
      </trkpt>
      <trkpt lat="49.93062" lon="4.62636">
        <ele>131.8</ele>
        <time>2024-04-06T09:23:42Z</time>
      </trkpt>
      <trkpt lat="49.93067" lon="4.62624">
        <ele>129.6</ele>
        <time>2024-04-06T09:23:43Z</time>
      </trkpt>
      <trkpt lat="49.93073" lon="4.62628">
        <ele>128.7</ele>
        <time>2024-04-06T09:23:44Z</time>
      </trkpt>
      <trkpt lat="49.9308" lon="4.62626">
        <ele>127.5</ele>
        <time>2024-04-06T09:23:46Z</time>
      </trkpt>
      <trkpt lat="49.93084" lon="4.62619">
        <ele>127.4</ele>
        <time>2024-04-06T09:23:47Z</time>
      </trkpt>
      <trkpt lat="49.93084" lon="4.62606">
        <ele>127.6</ele>
        <time>2024-04-06T09:23:48Z</time>
      </trkpt>
      <trkpt lat="49.93078" lon="4.62597">
        <ele>127.2</ele>
        <time>2024-04-06T09:23:50Z</time>
      </trkpt>
      <trkpt lat="49.9307" lon="4.62598">
        <ele>127.5</ele>
        <time>2024-04-06T09:23:51Z</time>
      </trkpt>
      <trkpt lat="49.93063" lon="4.62564">
        <ele>126</ele>
        <time>2024-04-06T09:23:55Z</time>
      </trkpt>
      <trkpt lat="49.93047" lon="4.62514">
        <ele>125.3</ele>
        <time>2024-04-06T09:24:02Z</time>
      </trkpt>
      <trkpt lat="49.93025" lon="4.62467">
        <ele>125.8</ele>
        <time>2024-04-06T09:24:08Z</time>
      </trkpt>
      <trkpt lat="49.93006" lon="4.62434">
        <ele>125.7</ele>
        <time>2024-04-06T09:24:13Z</time>
      </trkpt>
      <trkpt lat="49.92999" lon="4.62424">
        <ele>125.3</ele>
        <time>2024-04-06T09:24:15Z</time>
      </trkpt>
      <trkpt lat="49.9296" lon="4.62384">
        <ele>126.4</ele>
        <time>2024-04-06T09:24:23Z</time>
      </trkpt>
      <trkpt lat="49.92949" lon="4.62367">
        <ele>126.8</ele>
        <time>2024-04-06T09:24:26Z</time>
      </trkpt>
      <trkpt lat="49.92934" lon="4.62331">
        <ele>127.4</ele>
        <time>2024-04-06T09:24:31Z</time>
      </trkpt>
      <trkpt lat="49.92901" lon="4.62027">
        <ele>129.1</ele>
        <time>2024-04-06T09:25:06Z</time>
      </trkpt>
      <trkpt lat="49.92894" lon="4.61988">
        <ele>129.8</ele>
        <time>2024-04-06T09:25:11Z</time>
      </trkpt>
      <trkpt lat="49.92838" lon="4.6178">
        <ele>131.7</ele>
        <time>2024-04-06T09:25:37Z</time>
      </trkpt>
      <trkpt lat="49.92831" lon="4.61748">
        <ele>132</ele>
        <time>2024-04-06T09:25:41Z</time>
      </trkpt>
      <trkpt lat="49.92829" lon="4.61707">
        <ele>131.6</ele>
        <time>2024-04-06T09:25:45Z</time>
      </trkpt>
      <trkpt lat="49.92833" lon="4.61664">
        <ele>132.2</ele>
        <time>2024-04-06T09:25:50Z</time>
      </trkpt>
      <trkpt lat="49.92839" lon="4.61635">
        <ele>134.1</ele>
        <time>2024-04-06T09:25:54Z</time>
      </trkpt>
      <trkpt lat="49.92848" lon="4.61615">
        <ele>134.9</ele>
        <time>2024-04-06T09:25:57Z</time>
      </trkpt>
      <trkpt lat="49.92863" lon="4.61589">
        <ele>135.8</ele>
        <time>2024-04-06T09:26:01Z</time>
      </trkpt>
      <trkpt lat="49.92875" lon="4.61574">
        <ele>136.2</ele>
        <time>2024-04-06T09:26:03Z</time>
      </trkpt>
      <trkpt lat="49.92887" lon="4.61564">
        <ele>136.6</ele>
        <time>2024-04-06T09:26:06Z</time>
      </trkpt>
      <trkpt lat="49.92909" lon="4.61552">
        <ele>137.9</ele>
        <time>2024-04-06T09:26:10Z</time>
      </trkpt>
      <trkpt lat="49.9293" lon="4.61548">
        <ele>138.8</ele>
        <time>2024-04-06T09:26:14Z</time>
      </trkpt>
      <trkpt lat="49.92956" lon="4.61553">
        <ele>139.9</ele>
        <time>2024-04-06T09:26:18Z</time>
      </trkpt>
      <trkpt lat="49.93063" lon="4.61602">
        <ele>143.5</ele>
        <time>2024-04-06T09:26:38Z</time>
      </trkpt>
      <trkpt lat="49.93096" lon="4.61612">
        <ele>146.3</ele>
        <time>2024-04-06T09:26:44Z</time>
      </trkpt>
      <trkpt lat="49.93115" lon="4.61614">
        <ele>147</ele>
        <time>2024-04-06T09:26:48Z</time>
      </trkpt>
      <trkpt lat="49.93132" lon="4.61612">
        <ele>148.5</ele>
        <time>2024-04-06T09:26:51Z</time>
      </trkpt>
      <trkpt lat="49.93166" lon="4.61599">
        <ele>149</ele>
        <time>2024-04-06T09:26:57Z</time>
      </trkpt>
      <trkpt lat="49.93195" lon="4.6158">
        <ele>151.9</ele>
        <time>2024-04-06T09:27:02Z</time>
      </trkpt>
      <trkpt lat="49.93215" lon="4.61559">
        <ele>153.5</ele>
        <time>2024-04-06T09:27:07Z</time>
      </trkpt>
      <trkpt lat="49.93236" lon="4.61527">
        <ele>156.9</ele>
        <time>2024-04-06T09:27:12Z</time>
      </trkpt>
      <trkpt lat="49.93252" lon="4.61491">
        <ele>158.1</ele>
        <time>2024-04-06T09:27:17Z</time>
      </trkpt>
      <trkpt lat="49.93263" lon="4.61455">
        <ele>161.8</ele>
        <time>2024-04-06T09:27:22Z</time>
      </trkpt>
      <trkpt lat="49.9327" lon="4.61408">
        <ele>162.2</ele>
        <time>2024-04-06T09:27:27Z</time>
      </trkpt>
      <trkpt lat="49.93272" lon="4.61372">
        <ele>163.5</ele>
        <time>2024-04-06T09:27:31Z</time>
      </trkpt>
      <trkpt lat="49.93269" lon="4.61334">
        <ele>165.7</ele>
        <time>2024-04-06T09:27:36Z</time>
      </trkpt>
      <trkpt lat="49.93247" lon="4.61181">
        <ele>172.2</ele>
        <time>2024-04-06T09:27:54Z</time>
      </trkpt>
      <trkpt lat="49.93231" lon="4.611">
        <ele>178.4</ele>
        <time>2024-04-06T09:28:03Z</time>
      </trkpt>
      <trkpt lat="49.93223" lon="4.61076">
        <ele>177.5</ele>
        <time>2024-04-06T09:28:06Z</time>
      </trkpt>
      <trkpt lat="49.93204" lon="4.61026">
        <ele>181.8</ele>
        <time>2024-04-06T09:28:13Z</time>
      </trkpt>
      <trkpt lat="49.93193" lon="4.61003">
        <ele>180.8</ele>
        <time>2024-04-06T09:28:16Z</time>
      </trkpt>
      <trkpt lat="49.93181" lon="4.60982">
        <ele>183.5</ele>
        <time>2024-04-06T09:28:19Z</time>
      </trkpt>
      <trkpt lat="49.9315" lon="4.60939">
        <ele>185.7</ele>
        <time>2024-04-06T09:28:27Z</time>
      </trkpt>
      <trkpt lat="49.93122" lon="4.60913">
        <ele>188.9</ele>
        <time>2024-04-06T09:28:33Z</time>
      </trkpt>
      <trkpt lat="49.93081" lon="4.60886">
        <ele>191.8</ele>
        <time>2024-04-06T09:28:41Z</time>
      </trkpt>
      <trkpt lat="49.93047" lon="4.60873">
        <ele>192.9</ele>
        <time>2024-04-06T09:28:47Z</time>
      </trkpt>
      <trkpt lat="49.92938" lon="4.60847">
        <ele>201.5</ele>
        <time>2024-04-06T09:29:06Z</time>
      </trkpt>
      <trkpt lat="49.92893" lon="4.60825">
        <ele>205.4</ele>
        <time>2024-04-06T09:29:15Z</time>
      </trkpt>
      <trkpt lat="49.92863" lon="4.60803">
        <ele>206.4</ele>
        <time>2024-04-06T09:29:21Z</time>
      </trkpt>
      <trkpt lat="49.92832" lon="4.60771">
        <ele>207.8</ele>
        <time>2024-04-06T09:29:27Z</time>
      </trkpt>
      <trkpt lat="49.92802" lon="4.60731">
        <ele>208.5</ele>
        <time>2024-04-06T09:29:34Z</time>
      </trkpt>
      <trkpt lat="49.92774" lon="4.60679">
        <ele>209.3</ele>
        <time>2024-04-06T09:29:42Z</time>
      </trkpt>
      <trkpt lat="49.92764" lon="4.60654">
        <ele>212.3</ele>
        <time>2024-04-06T09:29:46Z</time>
      </trkpt>
      <trkpt lat="49.9275" lon="4.60615">
        <ele>209.3</ele>
        <time>2024-04-06T09:29:51Z</time>
      </trkpt>
      <trkpt lat="49.92735" lon="4.60552">
        <ele>217.7</ele>
        <time>2024-04-06T09:29:58Z</time>
      </trkpt>
      <trkpt lat="49.92726" lon="4.60481">
        <ele>211.9</ele>
        <time>2024-04-06T09:30:07Z</time>
      </trkpt>
      <trkpt lat="49.92725" lon="4.60434">
        <ele>208.9</ele>
        <time>2024-04-06T09:30:12Z</time>
      </trkpt>
      <trkpt lat="49.92731" lon="4.60322">
        <ele>205.7</ele>
        <time>2024-04-06T09:30:25Z</time>
      </trkpt>
      <trkpt lat="49.9273" lon="4.60271">
        <ele>200.9</ele>
        <time>2024-04-06T09:30:31Z</time>
      </trkpt>
      <trkpt lat="49.92726" lon="4.60231">
        <ele>200.6</ele>
        <time>2024-04-06T09:30:35Z</time>
      </trkpt>
      <trkpt lat="49.92717" lon="4.60193">
        <ele>198.8</ele>
        <time>2024-04-06T09:30:40Z</time>
      </trkpt>
      <trkpt lat="49.92706" lon="4.60159">
        <ele>196.3</ele>
        <time>2024-04-06T09:30:44Z</time>
      </trkpt>
      <trkpt lat="49.9269" lon="4.60123">
        <ele>197.6</ele>
        <time>2024-04-06T09:30:49Z</time>
      </trkpt>
      <trkpt lat="49.9267" lon="4.6009">
        <ele>197.2</ele>
        <time>2024-04-06T09:30:55Z</time>
      </trkpt>
      <trkpt lat="49.92649" lon="4.60066">
        <ele>195.1</ele>
        <time>2024-04-06T09:30:59Z</time>
      </trkpt>
      <trkpt lat="49.92149" lon="4.59654">
        <ele>184.8</ele>
        <time>2024-04-06T09:32:40Z</time>
      </trkpt>
      <trkpt lat="49.92108" lon="4.5961">
        <ele>182.5</ele>
        <time>2024-04-06T09:32:49Z</time>
      </trkpt>
      <trkpt lat="49.92082" lon="4.59571">
        <ele>182.2</ele>
        <time>2024-04-06T09:32:55Z</time>
      </trkpt>
      <trkpt lat="49.92061" lon="4.5953">
        <ele>183.5</ele>
        <time>2024-04-06T09:33:01Z</time>
      </trkpt>
      <trkpt lat="49.92045" lon="4.59485">
        <ele>180.4</ele>
        <time>2024-04-06T09:33:07Z</time>
      </trkpt>
      <trkpt lat="49.92036" lon="4.59456">
        <ele>182.8</ele>
        <time>2024-04-06T09:33:11Z</time>
      </trkpt>
      <trkpt lat="49.92024" lon="4.594">
        <ele>180.7</ele>
        <time>2024-04-06T09:33:18Z</time>
      </trkpt>
      <trkpt lat="49.92015" lon="4.59328">
        <ele>183</ele>
        <time>2024-04-06T09:33:26Z</time>
      </trkpt>
      <trkpt lat="49.91979" lon="4.5898">
        <ele>189.9</ele>
        <time>2024-04-06T09:34:06Z</time>
      </trkpt>
      <trkpt lat="49.91977" lon="4.58954">
        <ele>190.4</ele>
        <time>2024-04-06T09:34:09Z</time>
      </trkpt>
      <trkpt lat="49.91978" lon="4.58899">
        <ele>191.5</ele>
        <time>2024-04-06T09:34:16Z</time>
      </trkpt>
      <trkpt lat="49.91985" lon="4.58852">
        <ele>191.5</ele>
        <time>2024-04-06T09:34:21Z</time>
      </trkpt>
      <trkpt lat="49.9199" lon="4.58831">
        <ele>191.7</ele>
        <time>2024-04-06T09:34:24Z</time>
      </trkpt>
      <trkpt lat="49.92002" lon="4.58791">
        <ele>192.2</ele>
        <time>2024-04-06T09:34:29Z</time>
      </trkpt>
      <trkpt lat="49.92011" lon="4.58772">
        <ele>192</ele>
        <time>2024-04-06T09:34:32Z</time>
      </trkpt>
      <trkpt lat="49.92031" lon="4.58737">
        <ele>192.5</ele>
        <time>2024-04-06T09:34:37Z</time>
      </trkpt>
      <trkpt lat="49.92082" lon="4.58675">
        <ele>193.3</ele>
        <time>2024-04-06T09:34:48Z</time>
      </trkpt>
      <trkpt lat="49.92102" lon="4.58645">
        <ele>193.7</ele>
        <time>2024-04-06T09:34:53Z</time>
      </trkpt>
      <trkpt lat="49.92116" lon="4.5862">
        <ele>192.8</ele>
        <time>2024-04-06T09:34:57Z</time>
      </trkpt>
      <trkpt lat="49.92127" lon="4.58587">
        <ele>192.1</ele>
        <time>2024-04-06T09:35:01Z</time>
      </trkpt>
      <trkpt lat="49.92129" lon="4.58579">
        <ele>192.4</ele>
        <time>2024-04-06T09:35:02Z</time>
      </trkpt>
      <trkpt lat="49.92204" lon="4.58171">
        <ele>204.4</ele>
        <time>2024-04-06T09:35:51Z</time>
      </trkpt>
      <trkpt lat="49.9221" lon="4.58134">
        <ele>206.7</ele>
        <time>2024-04-06T09:35:55Z</time>
      </trkpt>
      <trkpt lat="49.92213" lon="4.58104">
        <ele>209.1</ele>
        <time>2024-04-06T09:35:59Z</time>
      </trkpt>
      <trkpt lat="49.92216" lon="4.58052">
        <ele>210.8</ele>
        <time>2024-04-06T09:36:05Z</time>
      </trkpt>
      <trkpt lat="49.92216" lon="4.57995">
        <ele>213.2</ele>
        <time>2024-04-06T09:36:11Z</time>
      </trkpt>
      <trkpt lat="49.9221" lon="4.57934">
        <ele>216.3</ele>
        <time>2024-04-06T09:36:18Z</time>
      </trkpt>
      <trkpt lat="49.92203" lon="4.57889">
        <ele>217.4</ele>
        <time>2024-04-06T09:36:24Z</time>
      </trkpt>
      <trkpt lat="49.92196" lon="4.5786">
        <ele>218.9</ele>
        <time>2024-04-06T09:36:27Z</time>
      </trkpt>
      <trkpt lat="49.92178" lon="4.57788">
        <ele>222.8</ele>
        <time>2024-04-06T09:36:36Z</time>
      </trkpt>
      <trkpt lat="49.92063" lon="4.5737">
        <ele>232.2</ele>
        <time>2024-04-06T09:37:28Z</time>
      </trkpt>
      <trkpt lat="49.92041" lon="4.57283">
        <ele>233.3</ele>
        <time>2024-04-06T09:37:39Z</time>
      </trkpt>
      <trkpt lat="49.92029" lon="4.57215">
        <ele>235.1</ele>
        <time>2024-04-06T09:37:47Z</time>
      </trkpt>
      <trkpt lat="49.92012" lon="4.57088">
        <ele>237.6</ele>
        <time>2024-04-06T09:38:02Z</time>
      </trkpt>
      <trkpt lat="49.92008" lon="4.57048">
        <ele>238</ele>
        <time>2024-04-06T09:38:06Z</time>
      </trkpt>
      <trkpt lat="49.92009" lon="4.57009">
        <ele>239.7</ele>
        <time>2024-04-06T09:38:11Z</time>
      </trkpt>
      <trkpt lat="49.92036" lon="4.56832">
        <ele>241.8</ele>
        <time>2024-04-06T09:38:32Z</time>
      </trkpt>
      <trkpt lat="49.92042" lon="4.56757">
        <ele>242.5</ele>
        <time>2024-04-06T09:38:40Z</time>
      </trkpt>
      <trkpt lat="49.92048" lon="4.56626">
        <ele>242.8</ele>
        <time>2024-04-06T09:38:55Z</time>
      </trkpt>
      <trkpt lat="49.92047" lon="4.56661">
        <ele>242.9</ele>
        <time>2024-04-06T09:38:59Z</time>
      </trkpt>
      <trkpt lat="49.92043" lon="4.56659">
        <ele>243.4</ele>
        <time>2024-04-06T09:39:00Z</time>
      </trkpt>
      <trkpt lat="49.9204" lon="4.56653">
        <ele>243.7</ele>
        <time>2024-04-06T09:39:01Z</time>
      </trkpt>
      <trkpt lat="49.92028" lon="4.56515">
        <ele>245.5</ele>
        <time>2024-04-06T09:39:17Z</time>
      </trkpt>
      <trkpt lat="49.92019" lon="4.56435">
        <ele>247.6</ele>
        <time>2024-04-06T09:39:26Z</time>
      </trkpt>
      <trkpt lat="49.92013" lon="4.56405">
        <ele>249.1</ele>
        <time>2024-04-06T09:39:30Z</time>
      </trkpt>
      <trkpt lat="49.91993" lon="4.56342">
        <ele>252.6</ele>
        <time>2024-04-06T09:39:38Z</time>
      </trkpt>
      <trkpt lat="49.91923" lon="4.56129">
        <ele>258</ele>
        <time>2024-04-06T09:40:05Z</time>
      </trkpt>
      <trkpt lat="49.91901" lon="4.56037">
        <ele>261.9</ele>
        <time>2024-04-06T09:40:17Z</time>
      </trkpt>
      <trkpt lat="49.91888" lon="4.55956">
        <ele>264.2</ele>
        <time>2024-04-06T09:40:26Z</time>
      </trkpt>
      <trkpt lat="49.91886" lon="4.55926">
        <ele>265.3</ele>
        <time>2024-04-06T09:40:30Z</time>
      </trkpt>
      <trkpt lat="49.91883" lon="4.55809">
        <ele>268.2</ele>
        <time>2024-04-06T09:40:43Z</time>
      </trkpt>
      <trkpt lat="49.9188" lon="4.55777">
        <ele>268.9</ele>
        <time>2024-04-06T09:40:47Z</time>
      </trkpt>
      <trkpt lat="49.91866" lon="4.55694">
        <ele>271.3</ele>
        <time>2024-04-06T09:40:57Z</time>
      </trkpt>
      <trkpt lat="49.9186" lon="4.55641">
        <ele>274.3</ele>
        <time>2024-04-06T09:41:03Z</time>
      </trkpt>
      <trkpt lat="49.91859" lon="4.55612">
        <ele>275.6</ele>
        <time>2024-04-06T09:41:06Z</time>
      </trkpt>
      <trkpt lat="49.91863" lon="4.55501">
        <ele>278.6</ele>
        <time>2024-04-06T09:41:19Z</time>
      </trkpt>
      <trkpt lat="49.91863" lon="4.55467">
        <ele>279.6</ele>
        <time>2024-04-06T09:41:23Z</time>
      </trkpt>
      <trkpt lat="49.91804" lon="4.54925">
        <ele>281.6</ele>
        <time>2024-04-06T09:42:26Z</time>
      </trkpt>
      <trkpt lat="49.91804" lon="4.54906">
        <ele>281</ele>
        <time>2024-04-06T09:42:28Z</time>
      </trkpt>
      <trkpt lat="49.91811" lon="4.54881">
        <ele>278.4</ele>
        <time>2024-04-06T09:42:31Z</time>
      </trkpt>
      <trkpt lat="49.91821" lon="4.54864">
        <ele>277.1</ele>
        <time>2024-04-06T09:42:34Z</time>
      </trkpt>
      <trkpt lat="49.91855" lon="4.54794">
        <ele>278.3</ele>
        <time>2024-04-06T09:42:44Z</time>
      </trkpt>
      <trkpt lat="49.91864" lon="4.54772">
        <ele>279</ele>
        <time>2024-04-06T09:42:47Z</time>
      </trkpt>
      <trkpt lat="49.91869" lon="4.54751">
        <ele>279.4</ele>
        <time>2024-04-06T09:42:49Z</time>
      </trkpt>
      <trkpt lat="49.91879" lon="4.54683">
        <ele>281.4</ele>
        <time>2024-04-06T09:42:57Z</time>
      </trkpt>
      <trkpt lat="49.91886" lon="4.54657">
        <ele>282.8</ele>
        <time>2024-04-06T09:43:00Z</time>
      </trkpt>
      <trkpt lat="49.91936" lon="4.54531">
        <ele>289.4</ele>
        <time>2024-04-06T09:43:17Z</time>
      </trkpt>
      <trkpt lat="49.91948" lon="4.54489">
        <ele>291.1</ele>
        <time>2024-04-06T09:43:23Z</time>
      </trkpt>
      <trkpt lat="49.91963" lon="4.54421">
        <ele>295.8</ele>
        <time>2024-04-06T09:43:31Z</time>
      </trkpt>
      <trkpt lat="49.9197" lon="4.54401">
        <ele>296.7</ele>
        <time>2024-04-06T09:43:34Z</time>
      </trkpt>
      <trkpt lat="49.92" lon="4.54329">
        <ele>298.3</ele>
        <time>2024-04-06T09:43:43Z</time>
      </trkpt>
      <trkpt lat="49.92004" lon="4.54307">
        <ele>299.9</ele>
        <time>2024-04-06T09:43:46Z</time>
      </trkpt>
      <trkpt lat="49.92005" lon="4.54285">
        <ele>301.3</ele>
        <time>2024-04-06T09:43:49Z</time>
      </trkpt>
      <trkpt lat="49.92" lon="4.54198">
        <ele>304.7</ele>
        <time>2024-04-06T09:43:59Z</time>
      </trkpt>
      <trkpt lat="49.92002" lon="4.54185">
        <ele>306.5</ele>
        <time>2024-04-06T09:44:00Z</time>
      </trkpt>
      <trkpt lat="49.92011" lon="4.54146">
        <ele>310.9</ele>
        <time>2024-04-06T09:44:05Z</time>
      </trkpt>
      <trkpt lat="49.92035" lon="4.54066">
        <ele>314</ele>
        <time>2024-04-06T09:44:15Z</time>
      </trkpt>
      <trkpt lat="49.92043" lon="4.54045">
        <ele>315.7</ele>
        <time>2024-04-06T09:44:18Z</time>
      </trkpt>
      <trkpt lat="49.92085" lon="4.53952">
        <ele>322.1</ele>
        <time>2024-04-06T09:44:31Z</time>
      </trkpt>
      <trkpt lat="49.92091" lon="4.53943">
        <ele>322.6</ele>
        <time>2024-04-06T09:44:32Z</time>
      </trkpt>
      <trkpt lat="49.92106" lon="4.53927">
        <ele>322.6</ele>
        <time>2024-04-06T09:44:35Z</time>
      </trkpt>
      <trkpt lat="49.92132" lon="4.53888">
        <ele>324.4</ele>
        <time>2024-04-06T09:44:42Z</time>
      </trkpt>
      <trkpt lat="49.92169" lon="4.53825">
        <ele>329.1</ele>
        <time>2024-04-06T09:44:52Z</time>
      </trkpt>
      <trkpt lat="49.92192" lon="4.5378">
        <ele>332.2</ele>
        <time>2024-04-06T09:44:58Z</time>
      </trkpt>
      <trkpt lat="49.92216" lon="4.53714">
        <ele>338.7</ele>
        <time>2024-04-06T09:45:07Z</time>
      </trkpt>
      <trkpt lat="49.92256" lon="4.53619">
        <ele>343.7</ele>
        <time>2024-04-06T09:45:20Z</time>
      </trkpt>
      <trkpt lat="49.92266" lon="4.53589">
        <ele>344.4</ele>
        <time>2024-04-06T09:45:24Z</time>
      </trkpt>
      <trkpt lat="49.92277" lon="4.5355">
        <ele>344.3</ele>
        <time>2024-04-06T09:45:29Z</time>
      </trkpt>
      <trkpt lat="49.92282" lon="4.5352">
        <ele>344.1</ele>
        <time>2024-04-06T09:45:32Z</time>
      </trkpt>
      <trkpt lat="49.92287" lon="4.53479">
        <ele>343.8</ele>
        <time>2024-04-06T09:45:37Z</time>
      </trkpt>
      <trkpt lat="49.92289" lon="4.53305">
        <ele>345.2</ele>
        <time>2024-04-06T09:45:57Z</time>
      </trkpt>
      <trkpt lat="49.92294" lon="4.53251">
        <ele>346.9</ele>
        <time>2024-04-06T09:46:03Z</time>
      </trkpt>
      <trkpt lat="49.92306" lon="4.53162">
        <ele>347</ele>
        <time>2024-04-06T09:46:14Z</time>
      </trkpt>
      <trkpt lat="49.92311" lon="4.53132">
        <ele>347.5</ele>
        <time>2024-04-06T09:46:17Z</time>
      </trkpt>
      <trkpt lat="49.92317" lon="4.53113">
        <ele>348</ele>
        <time>2024-04-06T09:46:20Z</time>
      </trkpt>
      <trkpt lat="49.92369" lon="4.52987">
        <ele>354.7</ele>
        <time>2024-04-06T09:46:37Z</time>
      </trkpt>
      <trkpt lat="49.92386" lon="4.5293">
        <ele>357.6</ele>
        <time>2024-04-06T09:46:44Z</time>
      </trkpt>
      <trkpt lat="49.92431" lon="4.52749">
        <ele>368</ele>
        <time>2024-04-06T09:47:06Z</time>
      </trkpt>
      <trkpt lat="49.92447" lon="4.52662">
        <ele>372.1</ele>
        <time>2024-04-06T09:47:16Z</time>
      </trkpt>
      <trkpt lat="49.9246" lon="4.52565">
        <ele>376.2</ele>
        <time>2024-04-06T09:47:28Z</time>
      </trkpt>
      <trkpt lat="49.9246" lon="4.52557">
        <ele>376.8</ele>
        <time>2024-04-06T09:47:29Z</time>
      </trkpt>
      <trkpt lat="49.92458" lon="4.52548">
        <ele>377.6</ele>
        <time>2024-04-06T09:47:30Z</time>
      </trkpt>
      <trkpt lat="49.92403" lon="4.526">
        <ele>376.6</ele>
        <time>2024-04-06T09:47:41Z</time>
      </trkpt>
      <trkpt lat="49.92391" lon="4.52607">
        <ele>377</ele>
        <time>2024-04-06T09:47:44Z</time>
      </trkpt>
      <trkpt lat="49.92373" lon="4.52609">
        <ele>377.1</ele>
        <time>2024-04-06T09:47:47Z</time>
      </trkpt>
      <trkpt lat="49.92362" lon="4.52601">
        <ele>377.4</ele>
        <time>2024-04-06T09:47:49Z</time>
      </trkpt>
      <trkpt lat="49.92355" lon="4.5259">
        <ele>377.4</ele>
        <time>2024-04-06T09:47:51Z</time>
      </trkpt>
      <trkpt lat="49.92349" lon="4.52576">
        <ele>377.4</ele>
        <time>2024-04-06T09:47:53Z</time>
      </trkpt>
      <trkpt lat="49.92324" lon="4.52458">
        <ele>379.2</ele>
        <time>2024-04-06T09:48:07Z</time>
      </trkpt>
      <trkpt lat="49.92312" lon="4.52427">
        <ele>379.7</ele>
        <time>2024-04-06T09:48:11Z</time>
      </trkpt>
      <trkpt lat="49.92304" lon="4.52414">
        <ele>380.1</ele>
        <time>2024-04-06T09:48:13Z</time>
      </trkpt>
      <trkpt lat="49.92232" lon="4.52322">
        <ele>383.4</ele>
        <time>2024-04-06T09:48:30Z</time>
      </trkpt>
      <trkpt lat="49.92209" lon="4.52294">
        <ele>383.7</ele>
        <time>2024-04-06T09:48:35Z</time>
      </trkpt>
      <trkpt lat="49.92118" lon="4.52203">
        <ele>383.7</ele>
        <time>2024-04-06T09:48:54Z</time>
      </trkpt>
      <trkpt lat="49.9211" lon="4.52191">
        <ele>384</ele>
        <time>2024-04-06T09:48:56Z</time>
      </trkpt>
      <trkpt lat="49.92101" lon="4.52174">
        <ele>383.9</ele>
        <time>2024-04-06T09:48:59Z</time>
      </trkpt>
      <trkpt lat="49.9207" lon="4.5209">
        <ele>385.8</ele>
        <time>2024-04-06T09:49:10Z</time>
      </trkpt>
      <trkpt lat="49.92061" lon="4.52063">
        <ele>386</ele>
        <time>2024-04-06T09:49:13Z</time>
      </trkpt>
      <trkpt lat="49.92051" lon="4.52026">
        <ele>386</ele>
        <time>2024-04-06T09:49:18Z</time>
      </trkpt>
      <trkpt lat="49.9206" lon="4.51999">
        <ele>386</ele>
        <time>2024-04-06T09:49:21Z</time>
      </trkpt>
      <trkpt lat="49.92066" lon="4.5199">
        <ele>386.1</ele>
        <time>2024-04-06T09:49:23Z</time>
      </trkpt>
      <trkpt lat="49.92083" lon="4.51971">
        <ele>387</ele>
        <time>2024-04-06T09:49:26Z</time>
      </trkpt>
      <trkpt lat="49.92086" lon="4.51978">
        <ele>386.7</ele>
        <time>2024-04-06T09:49:27Z</time>
      </trkpt>
      <trkpt lat="49.9208" lon="4.51985">
        <ele>386.5</ele>
        <time>2024-04-06T09:49:29Z</time>
      </trkpt>
      <trkpt lat="49.92076" lon="4.51985">
        <ele>386.4</ele>
        <time>2024-04-06T09:49:30Z</time>
      </trkpt>
      <trkpt lat="49.92062" lon="4.52003">
        <ele>386</ele>
        <time>2024-04-06T09:49:33Z</time>
      </trkpt>
      <trkpt lat="49.92058" lon="4.52012">
        <ele>386</ele>
        <time>2024-04-06T09:49:34Z</time>
      </trkpt>
    </trkseg>
  </trk>
</gpx>